Wetterdaten: Donnerstag, 05.02.2026
Datum Zeit Temp. Aussen Temp. o. S. Temp +5cm Feuchte Auss Luftdruck Regen Sonnenschein Regendauer Solar Windböen Empfang
05.02.2026 00:00 1,8 °C 0,6 °C -2,2 °C 93 % 994,6 hPa 0,0 l/m² 0 min 0 min 0 W/m² 6,4 km/h (2 Bft) 97,87 %
05.02.2026 00:04 1,7 °C 0,6 °C -2,8 °C 93 % 994,6 hPa 0,0 l/m² 0 min 0 min 0 W/m² 9,7 km/h (2 Bft) 100,00 %
05.02.2026 00:10 1,7 °C 0,6 °C -2,8 °C 93 % 994,7 hPa 0,0 l/m² 0 min 0 min 0 W/m² 9,7 km/h (2 Bft) 96,15 %
05.02.2026 00:12 1,6 °C 0,6 °C -2,8 °C 93 % 994,7 hPa 0,0 l/m² 0 min 0 min 0 W/m² 6,4 km/h (2 Bft) 97,87 %
05.02.2026 00:16 1,6 °C 0,6 °C -2,8 °C 93 % 994,7 hPa 0,0 l/m² 0 min 0 min 0 W/m² 6,4 km/h (2 Bft) 94,62 %
05.02.2026 00:18 1,6 °C 0,6 °C -2,8 °C 93 % 994,7 hPa 0,0 l/m² 0 min 0 min 0 W/m² 9,7 km/h (2 Bft) 93,62 %
05.02.2026 00:20 1,6 °C 0,6 °C -2,8 °C 93 % 994,8 hPa 0,0 l/m² 0 min 0 min 0 W/m² 6,4 km/h (2 Bft) 95,74 %
05.02.2026 00:22 1,5 °C 0,6 °C -2,8 °C 93 % 994,8 hPa 0,0 l/m² 0 min 0 min 0 W/m² 9,7 km/h (2 Bft) 95,74 %
05.02.2026 00:24 1,5 °C 0,6 °C -2,8 °C 93 % 994,7 hPa 0,0 l/m² 0 min 0 min 0 W/m² 9,7 km/h (2 Bft) 97,87 %
05.02.2026 00:26 1,5 °C 0,6 °C -2,8 °C 93 % 994,7 hPa 0,0 l/m² 0 min 0 min 0 W/m² 6,4 km/h (2 Bft) 93,62 %
05.02.2026 00:28 1,5 °C 0,6 °C -2,8 °C 93 % 994,6 hPa 0,0 l/m² 0 min 0 min 0 W/m² 9,7 km/h (2 Bft) 95,65 %
05.02.2026 00:30 1,4 °C 0,6 °C -2,8 °C 93 % 994,6 hPa 0,0 l/m² 0 min 0 min 0 W/m² 12,9 km/h (3 Bft) 93,62 %
05.02.2026 00:32 1,4 °C 0,6 °C -2,8 °C 93 % 994,7 hPa 0,0 l/m² 0 min 0 min 0 W/m² 6,4 km/h (2 Bft) 95,74 %
05.02.2026 00:34 1,4 °C 0,6 °C -2,8 °C 93 % 994,6 hPa 0,0 l/m² 0 min 0 min 0 W/m² 6,4 km/h (2 Bft) 95,74 %
05.02.2026 00:36 1,4 °C 0,6 °C -2,8 °C 93 % 994,6 hPa 0,0 l/m² 0 min 0 min 0 W/m² 12,9 km/h (3 Bft) 93,62 %
05.02.2026 00:38 1,4 °C 0,6 °C -2,8 °C 93 % 994,6 hPa 0,0 l/m² 0 min 0 min 0 W/m² 3,2 km/h (1 Bft) 95,74 %
05.02.2026 00:40 1,3 °C 0,6 °C -2,8 °C 93 % 994,6 hPa 0,0 l/m² 0 min 0 min 0 W/m² 6,4 km/h (2 Bft) 95,65 %
05.02.2026 00:42 1,3 °C 0,6 °C -2,8 °C 94 % 994,6 hPa 0,0 l/m² 0 min 0 min 0 W/m² 16,1 km/h (3 Bft) 95,74 %
05.02.2026 00:44 1,3 °C 0,6 °C -2,8 °C 94 % 994,6 hPa 0,0 l/m² 0 min 0 min 0 W/m² 9,7 km/h (2 Bft) 89,36 %
05.02.2026 00:46 1,3 °C 0,6 °C -2,8 °C 94 % 994,6 hPa 0,0 l/m² 0 min 0 min 0 W/m² 6,4 km/h (2 Bft) 95,74 %
05.02.2026 00:48 1,3 °C 0,6 °C -2,8 °C 94 % 994,6 hPa 0,0 l/m² 0 min 0 min 0 W/m² 6,4 km/h (2 Bft) 93,62 %
05.02.2026 00:50 1,3 °C 0,6 °C -2,8 °C 94 % 994,7 hPa 0,0 l/m² 0 min 0 min 0 W/m² 6,4 km/h (2 Bft) 95,74 %
05.02.2026 00:52 1,3 °C 0,6 °C -2,8 °C 94 % 994,6 hPa 0,0 l/m² 0 min 0 min 0 W/m² 6,4 km/h (2 Bft) 95,65 %
05.02.2026 00:54 1,3 °C 0,6 °C -2,8 °C 94 % 994,6 hPa 0,0 l/m² 0 min 0 min 0 W/m² 3,2 km/h (1 Bft) 95,74 %
05.02.2026 00:56 1,3 °C 0,6 °C -2,8 °C 94 % 994,6 hPa 0,0 l/m² 0 min 0 min 0 W/m² 6,4 km/h (2 Bft) 95,74 %
05.02.2026 00:58 1,2 °C 0,6 °C -2,8 °C 94 % 994,6 hPa 0,0 l/m² 0 min 0 min 0 W/m² 6,4 km/h (2 Bft) 95,74 %
05.02.2026 01:00 1,2 °C 0,0 °C -2,8 °C 94 % 994,6 hPa 0,0 l/m² 0 min 0 min 0 W/m² 3,2 km/h (1 Bft) 93,62 %
05.02.2026 01:02 1,2 °C 0,0 °C -2,8 °C 94 % 994,6 hPa 0,0 l/m² 0 min 0 min 0 W/m² 3,2 km/h (1 Bft) 95,74 %
05.02.2026 01:04 1,2 °C 0,0 °C -2,8 °C 94 % 994,6 hPa 0,0 l/m² 0 min 0 min 0 W/m² 3,2 km/h (1 Bft) 100,00 %
05.02.2026 01:06 1,2 °C 0,0 °C -2,8 °C 94 % 994,6 hPa 0,0 l/m² 0 min 0 min 0 W/m² 3,2 km/h (1 Bft) 100,00 %
05.02.2026 01:08 1,2 °C 0,0 °C -2,8 °C 94 % 994,6 hPa 0,0 l/m² 0 min 0 min 0 W/m² 3,2 km/h (1 Bft) 97,87 %
05.02.2026 01:10 1,2 °C 0,0 °C -2,8 °C 94 % 994,6 hPa 0,0 l/m² 0 min 0 min 0 W/m² 6,4 km/h (2 Bft) 100,00 %
05.02.2026 01:12 1,2 °C 0,0 °C -2,8 °C 94 % 994,6 hPa 0,0 l/m² 0 min 0 min 0 W/m² 6,4 km/h (2 Bft) 100,00 %
05.02.2026 01:14 1,1 °C 0,0 °C -2,8 °C 94 % 994,6 hPa 0,0 l/m² 0 min 0 min 0 W/m² 3,2 km/h (1 Bft) 100,00 %
05.02.2026 01:16 1,1 °C 0,0 °C -2,8 °C 94 % 994,6 hPa 0,0 l/m² 0 min 0 min 0 W/m² 9,7 km/h (2 Bft) 100,00 %
05.02.2026 01:18 1,1 °C 0,0 °C -2,8 °C 94 % 994,6 hPa 0,0 l/m² 0 min 0 min 0 W/m² 6,4 km/h (2 Bft) 97,87 %
05.02.2026 01:20 1,1 °C 0,0 °C -2,8 °C 94 % 994,6 hPa 0,0 l/m² 0 min 0 min 0 W/m² 3,2 km/h (1 Bft) 100,00 %
05.02.2026 01:22 1,1 °C 0,0 °C -2,8 °C 94 % 994,5 hPa 0,0 l/m² 0 min 0 min 0 W/m² 3,2 km/h (1 Bft) 100,00 %
05.02.2026 01:24 1,1 °C 0,0 °C -2,8 °C 94 % 994,6 hPa 0,0 l/m² 0 min 0 min 0 W/m² 6,4 km/h (2 Bft) 97,87 %
05.02.2026 01:26 1,1 °C 0,0 °C -2,8 °C 94 % 994,6 hPa 0,0 l/m² 0 min 0 min 0 W/m² 3,2 km/h (1 Bft) 97,83 %
05.02.2026 01:28 1,1 °C 0,0 °C -2,8 °C 94 % 994,5 hPa 0,0 l/m² 0 min 0 min 0 W/m² 3,2 km/h (1 Bft) 100,00 %
05.02.2026 01:30 1,1 °C 0,0 °C -2,8 °C 94 % 994,5 hPa 0,0 l/m² 0 min 0 min 0 W/m² 3,2 km/h (1 Bft) 97,87 %
05.02.2026 01:32 1,1 °C 0,0 °C -2,8 °C 94 % 994,6 hPa 0,0 l/m² 0 min 0 min 0 W/m² 3,2 km/h (1 Bft) 97,87 %
05.02.2026 01:34 1,1 °C 0,0 °C -2,8 °C 94 % 994,5 hPa 0,0 l/m² 0 min 0 min 0 W/m² 3,2 km/h (1 Bft) 100,00 %
05.02.2026 01:36 1,1 °C 0,0 °C -2,8 °C 94 % 994,5 hPa 0,0 l/m² 0 min 0 min 0 W/m² 3,2 km/h (1 Bft) 100,00 %
05.02.2026 01:38 1,1 °C 0,0 °C -2,8 °C 94 % 994,5 hPa 0,0 l/m² 0 min 0 min 0 W/m² 6,4 km/h (2 Bft) 97,83 %
05.02.2026 01:40 1,0 °C 0,0 °C -2,8 °C 94 % 994,4 hPa 0,0 l/m² 0 min 0 min 0 W/m² 6,4 km/h (2 Bft) 97,87 %
05.02.2026 01:42 1,1 °C 0,6 °C -2,8 °C 94 % 994,3 hPa 0,0 l/m² 0 min 0 min 0 W/m² 3,2 km/h (1 Bft) 97,87 %
05.02.2026 01:44 1,0 °C 0,6 °C -2,8 °C 94 % 994,3 hPa 0,0 l/m² 0 min 0 min 0 W/m² 6,4 km/h (2 Bft) 97,87 %
05.02.2026 01:46 1,0 °C 0,6 °C -2,8 °C 94 % 994,3 hPa 0,0 l/m² 0 min 0 min 0 W/m² 6,4 km/h (2 Bft) 97,87 %
05.02.2026 01:48 1,1 °C 0,6 °C -2,8 °C 94 % 994,3 hPa 0,0 l/m² 0 min 0 min 0 W/m² 6,4 km/h (2 Bft) 97,87 %
05.02.2026 01:50 1,1 °C 0,6 °C -2,8 °C 94 % 994,3 hPa 0,0 l/m² 0 min 0 min 0 W/m² 6,4 km/h (2 Bft) 97,83 %
05.02.2026 01:52 1,1 °C 0,6 °C -2,8 °C 94 % 994,3 hPa 0,0 l/m² 0 min 0 min 0 W/m² 6,4 km/h (2 Bft) 97,87 %
05.02.2026 01:54 1,1 °C 0,6 °C -2,8 °C 94 % 994,2 hPa 0,0 l/m² 0 min 0 min 0 W/m² 6,4 km/h (2 Bft) 97,87 %
05.02.2026 01:56 1,1 °C 0,6 °C -2,8 °C 94 % 994,2 hPa 0,0 l/m² 0 min 0 min 0 W/m² 6,4 km/h (2 Bft) 97,87 %
05.02.2026 01:58 1,1 °C 0,6 °C -2,8 °C 94 % 994,1 hPa 0,0 l/m² 0 min 0 min 0 W/m² 6,4 km/h (2 Bft) 97,87 %
05.02.2026 02:00 1,1 °C 0,6 °C -2,8 °C 94 % 994,1 hPa 0,0 l/m² 0 min 0 min 0 W/m² 6,4 km/h (2 Bft) 97,87 %
05.02.2026 02:02 1,2 °C 0,6 °C -2,8 °C 94 % 994,1 hPa 0,0 l/m² 0 min 0 min 0 W/m² 6,4 km/h (2 Bft) 97,83 %
05.02.2026 02:04 1,2 °C 0,6 °C -2,8 °C 95 % 994,1 hPa 0,0 l/m² 0 min 0 min 0 W/m² 9,7 km/h (2 Bft) 97,92 %
05.02.2026 02:06 1,2 °C 0,6 °C -2,8 °C 95 % 994,0 hPa 0,0 l/m² 0 min 0 min 0 W/m² 6,4 km/h (2 Bft) 93,62 %
05.02.2026 02:08 1,2 °C 0,6 °C -2,8 °C 95 % 994,0 hPa 0,0 l/m² 0 min 0 min 0 W/m² 6,4 km/h (2 Bft) 97,87 %
05.02.2026 02:10 1,2 °C 0,6 °C -2,8 °C 95 % 994,0 hPa 0,0 l/m² 0 min 0 min 0 W/m² 9,7 km/h (2 Bft) 100,00 %
05.02.2026 02:14 1,2 °C 0,6 °C -2,8 °C 95 % 994,0 hPa 0,0 l/m² 0 min 0 min 0 W/m² 3,2 km/h (1 Bft) 98,15 %
05.02.2026 02:16 1,3 °C 0,6 °C -2,8 °C 95 % 994,0 hPa 0,0 l/m² 0 min 0 min 0 W/m² 9,7 km/h (2 Bft) 100,00 %
05.02.2026 02:18 1,3 °C 1,1 °C -2,2 °C 95 % 994,0 hPa 0,0 l/m² 0 min 0 min 0 W/m² 9,7 km/h (2 Bft) 100,00 %
05.02.2026 02:20 1,3 °C 1,1 °C -2,2 °C 95 % 994,0 hPa 0,0 l/m² 0 min 0 min 0 W/m² 6,4 km/h (2 Bft) 100,00 %
05.02.2026 02:22 1,3 °C 1,1 °C -2,2 °C 95 % 994,0 hPa 0,0 l/m² 0 min 0 min 0 W/m² 3,2 km/h (1 Bft) 97,87 %
05.02.2026 02:24 1,3 °C 1,1 °C -2,2 °C 95 % 994,0 hPa 0,0 l/m² 0 min 0 min 0 W/m² 6,4 km/h (2 Bft) 100,00 %
05.02.2026 02:26 1,3 °C 1,1 °C -2,2 °C 95 % 994,0 hPa 0,0 l/m² 0 min 0 min 0 W/m² 6,4 km/h (2 Bft) 97,87 %
05.02.2026 02:28 1,3 °C 1,1 °C -2,2 °C 95 % 993,9 hPa 0,0 l/m² 0 min 0 min 0 W/m² 6,4 km/h (2 Bft) 100,00 %
05.02.2026 02:30 1,3 °C 1,1 °C -2,2 °C 95 % 994,0 hPa 0,0 l/m² 0 min 0 min 0 W/m² 6,4 km/h (2 Bft) 100,00 %
05.02.2026 02:32 1,4 °C 1,1 °C -2,2 °C 95 % 993,9 hPa 0,0 l/m² 0 min 0 min 0 W/m² 9,7 km/h (2 Bft) 100,00 %
05.02.2026 02:34 1,4 °C 1,1 °C -2,2 °C 95 % 994,0 hPa 0,0 l/m² 0 min 0 min 0 W/m² 6,4 km/h (2 Bft) 97,87 %
05.02.2026 02:36 1,4 °C 1,1 °C -2,2 °C 95 % 993,9 hPa 0,0 l/m² 0 min 0 min 0 W/m² 6,4 km/h (2 Bft) 97,87 %
05.02.2026 02:38 1,4 °C 1,1 °C -2,2 °C 95 % 993,9 hPa 0,0 l/m² 0 min 0 min 0 W/m² 6,4 km/h (2 Bft) 97,87 %
05.02.2026 02:40 1,4 °C 1,1 °C -2,2 °C 95 % 993,9 hPa 0,0 l/m² 0 min 0 min 0 W/m² 3,2 km/h (1 Bft) 97,87 %
05.02.2026 02:42 1,4 °C 1,1 °C -2,2 °C 95 % 993,9 hPa 0,0 l/m² 0 min 0 min 0 W/m² 6,4 km/h (2 Bft) 97,83 %
05.02.2026 02:44 1,4 °C 1,1 °C -2,2 °C 95 % 993,9 hPa 0,0 l/m² 0 min 0 min 0 W/m² 3,2 km/h (1 Bft) 97,87 %
05.02.2026 02:46 1,4 °C 1,1 °C -2,2 °C 95 % 993,9 hPa 0,0 l/m² 0 min 0 min 0 W/m² 3,2 km/h (1 Bft) 97,87 %
05.02.2026 02:48 1,4 °C 1,1 °C -2,2 °C 95 % 993,9 hPa 0,0 l/m² 0 min 0 min 0 W/m² 6,4 km/h (2 Bft) 95,74 %
05.02.2026 02:50 1,5 °C 1,1 °C -2,2 °C 95 % 993,9 hPa 0,0 l/m² 0 min 0 min 0 W/m² 12,9 km/h (3 Bft) 95,74 %
05.02.2026 02:52 1,5 °C 1,1 °C -2,2 °C 95 % 993,9 hPa 0,0 l/m² 0 min 0 min 0 W/m² 6,4 km/h (2 Bft) 97,87 %
05.02.2026 02:54 1,5 °C 1,1 °C -2,2 °C 95 % 993,9 hPa 0,0 l/m² 0 min 0 min 0 W/m² 6,4 km/h (2 Bft) 97,83 %
05.02.2026 02:56 1,5 °C 1,1 °C -2,2 °C 95 % 993,9 hPa 0,0 l/m² 0 min 0 min 0 W/m² 6,4 km/h (2 Bft) 97,87 %
05.02.2026 02:58 1,5 °C 1,1 °C -2,2 °C 95 % 994,0 hPa 0,0 l/m² 0 min 0 min 0 W/m² 6,4 km/h (2 Bft) 97,87 %
05.02.2026 03:00 1,5 °C 1,1 °C -2,2 °C 95 % 994,0 hPa 0,0 l/m² 0 min 0 min 0 W/m² 3,2 km/h (1 Bft) 97,87 %
05.02.2026 03:02 1,6 °C 1,1 °C -2,2 °C 95 % 993,9 hPa 0,0 l/m² 0 min 0 min 0 W/m² 6,4 km/h (2 Bft) 97,87 %
05.02.2026 03:04 1,6 °C 1,1 °C -2,2 °C 95 % 994,0 hPa 0,0 l/m² 0 min 0 min 0 W/m² 6,4 km/h (2 Bft) 97,87 %
05.02.2026 03:06 1,6 °C 1,1 °C -2,2 °C 95 % 993,9 hPa 0,0 l/m² 0 min 0 min 0 W/m² 6,4 km/h (2 Bft) 93,62 %
05.02.2026 03:08 1,6 °C 1,1 °C -2,2 °C 95 % 993,9 hPa 0,0 l/m² 0 min 0 min 0 W/m² 6,4 km/h (2 Bft) 100,00 %
05.02.2026 03:10 1,6 °C 1,1 °C -2,2 °C 95 % 994,0 hPa 0,0 l/m² 0 min 0 min 0 W/m² 6,4 km/h (2 Bft) 96,55 %
05.02.2026 03:12 1,6 °C 1,1 °C -2,2 °C 95 % 993,9 hPa 0,0 l/m² 0 min 0 min 0 W/m² 3,2 km/h (1 Bft) 100,00 %
05.02.2026 03:14 1,6 °C 1,1 °C -2,2 °C 95 % 993,9 hPa 0,0 l/m² 0 min 0 min 0 W/m² 3,2 km/h (1 Bft) 100,00 %
05.02.2026 03:16 1,6 °C 1,1 °C -2,2 °C 95 % 993,9 hPa 0,0 l/m² 0 min 0 min 0 W/m² 6,4 km/h (2 Bft) 100,00 %
05.02.2026 03:18 1,6 °C 1,1 °C -2,2 °C 95 % 993,9 hPa 0,0 l/m² 0 min 0 min 0 W/m² 6,4 km/h (2 Bft) 97,87 %
05.02.2026 03:20 1,6 °C 1,1 °C -2,2 °C 95 % 993,8 hPa 0,0 l/m² 0 min 0 min 0 W/m² 3,2 km/h (1 Bft) 97,87 %
05.02.2026 03:22 1,6 °C 1,1 °C -2,2 °C 95 % 993,8 hPa 0,0 l/m² 0 min 0 min 0 W/m² 6,4 km/h (2 Bft) 97,87 %
05.02.2026 03:24 1,6 °C 1,1 °C -2,2 °C 95 % 993,8 hPa 0,0 l/m² 0 min 0 min 0 W/m² 9,7 km/h (2 Bft) 95,74 %
05.02.2026 03:26 1,6 °C 1,1 °C -2,2 °C 95 % 993,8 hPa 0,0 l/m² 0 min 0 min 0 W/m² 9,7 km/h (2 Bft) 95,74 %
05.02.2026 03:28 1,6 °C 1,1 °C -2,2 °C 95 % 993,8 hPa 0,0 l/m² 0 min 0 min 0 W/m² 6,4 km/h (2 Bft) 95,65 %
05.02.2026 03:30 1,7 °C 1,1 °C -2,2 °C 95 % 993,8 hPa 0,0 l/m² 0 min 0 min 0 W/m² 6,4 km/h (2 Bft) 95,74 %
05.02.2026 03:32 1,7 °C 1,1 °C -2,2 °C 95 % 993,7 hPa 0,0 l/m² 0 min 0 min 0 W/m² 3,2 km/h (1 Bft) 97,87 %
05.02.2026 03:34 1,7 °C 1,1 °C -2,2 °C 95 % 993,7 hPa 0,0 l/m² 0 min 0 min 0 W/m² 3,2 km/h (1 Bft) 28,57 %
05.02.2026 03:36 1,7 °C 1,1 °C -2,2 °C 95 % 993,7 hPa 0,0 l/m² 0 min 0 min 0 W/m² 6,4 km/h (2 Bft) 95,74 %
05.02.2026 03:38 1,7 °C 1,1 °C -2,2 °C 95 % 993,7 hPa 0,0 l/m² 0 min 0 min 0 W/m² 6,4 km/h (2 Bft) 93,62 %
05.02.2026 03:40 1,7 °C 1,1 °C -2,2 °C 95 % 993,7 hPa 0,0 l/m² 0 min 0 min 0 W/m² 3,2 km/h (1 Bft) 93,48 %
05.02.2026 03:42 1,7 °C 1,1 °C -2,2 °C 95 % 993,7 hPa 0,0 l/m² 0 min 0 min 0 W/m² 6,4 km/h (2 Bft) 93,62 %
05.02.2026 03:44 1,7 °C 1,1 °C -2,2 °C 95 % 993,6 hPa 0,0 l/m² 0 min 0 min 0 W/m² 3,2 km/h (1 Bft) 93,62 %
05.02.2026 03:46 1,7 °C 1,1 °C -2,2 °C 95 % 993,6 hPa 0,0 l/m² 0 min 0 min 0 W/m² 6,4 km/h (2 Bft) 95,74 %
05.02.2026 03:48 1,7 °C 1,1 °C -2,2 °C 95 % 993,6 hPa 0,0 l/m² 0 min 0 min 0 W/m² 6,4 km/h (2 Bft) 95,74 %
05.02.2026 03:50 1,8 °C 1,1 °C -2,2 °C 95 % 993,6 hPa 0,0 l/m² 0 min 0 min 0 W/m² 6,4 km/h (2 Bft) 95,65 %
05.02.2026 03:52 1,7 °C 1,1 °C -2,2 °C 95 % 993,5 hPa 0,0 l/m² 0 min 0 min 0 W/m² 6,4 km/h (2 Bft) 95,74 %
05.02.2026 03:54 1,8 °C 1,1 °C -2,2 °C 95 % 993,5 hPa 0,0 l/m² 0 min 0 min 0 W/m² 6,4 km/h (2 Bft) 95,74 %
05.02.2026 03:56 1,8 °C 1,1 °C -2,2 °C 95 % 993,4 hPa 0,0 l/m² 0 min 0 min 0 W/m² 9,7 km/h (2 Bft) 95,74 %
05.02.2026 03:58 1,8 °C 1,1 °C -2,2 °C 95 % 993,4 hPa 0,0 l/m² 0 min 0 min 0 W/m² 6,4 km/h (2 Bft) 93,62 %
05.02.2026 04:00 1,8 °C 1,1 °C -2,2 °C 96 % 993,4 hPa 0,0 l/m² 0 min 0 min 0 W/m² 3,2 km/h (1 Bft) 97,87 %
05.02.2026 04:02 1,8 °C 1,1 °C -2,2 °C 96 % 993,4 hPa 0,0 l/m² 0 min 0 min 0 W/m² 3,2 km/h (1 Bft) 97,83 %
05.02.2026 04:04 1,8 °C 1,7 °C -2,2 °C 96 % 993,4 hPa 0,0 l/m² 0 min 0 min 0 W/m² 3,2 km/h (1 Bft) 97,87 %
05.02.2026 04:06 1,8 °C 1,7 °C -1,7 °C 96 % 993,3 hPa 0,0 l/m² 0 min 0 min 0 W/m² 6,4 km/h (2 Bft) 97,87 %
05.02.2026 04:08 1,8 °C 1,7 °C -1,7 °C 96 % 993,3 hPa 0,0 l/m² 0 min 0 min 0 W/m² 6,4 km/h (2 Bft) 95,83 %
05.02.2026 04:10 1,8 °C 1,7 °C -1,7 °C 96 % 993,3 hPa 0,0 l/m² 0 min 0 min 0 W/m² 9,7 km/h (2 Bft) 97,87 %
05.02.2026 04:12 1,9 °C 1,7 °C -1,7 °C 96 % 993,3 hPa 0,0 l/m² 0 min 0 min 0 W/m² 3,2 km/h (1 Bft) 97,87 %
05.02.2026 04:14 1,9 °C 1,7 °C -1,7 °C 96 % 993,2 hPa 0,0 l/m² 0 min 0 min 0 W/m² 6,4 km/h (2 Bft) 97,83 %
05.02.2026 04:16 1,9 °C 1,7 °C -1,7 °C 96 % 993,2 hPa 0,0 l/m² 0 min 0 min 0 W/m² 6,4 km/h (2 Bft) 97,87 %
05.02.2026 04:18 1,9 °C 1,7 °C -1,7 °C 96 % 993,2 hPa 0,0 l/m² 0 min 0 min 0 W/m² 3,2 km/h (1 Bft) 100,00 %
05.02.2026 04:20 1,9 °C 1,7 °C -1,7 °C 96 % 993,2 hPa 0,0 l/m² 0 min 0 min 0 W/m² 6,4 km/h (2 Bft) 100,00 %
05.02.2026 04:22 1,9 °C 1,7 °C -1,7 °C 96 % 993,2 hPa 0,0 l/m² 0 min 0 min 0 W/m² 9,7 km/h (2 Bft) 85,11 %
05.02.2026 04:24 2,0 °C 1,7 °C -1,7 °C 95 % 993,2 hPa 0,0 l/m² 0 min 0 min 0 W/m² 6,4 km/h (2 Bft) 55,17 %
05.02.2026 04:26 2,0 °C 1,7 °C -1,7 °C 95 % 993,1 hPa 0,0 l/m² 0 min 0 min 0 W/m² 6,4 km/h (2 Bft) 97,83 %
05.02.2026 04:28 2,1 °C 1,7 °C -1,7 °C 95 % 993,1 hPa 0,0 l/m² 0 min 0 min 0 W/m² 9,7 km/h (2 Bft) 95,74 %
05.02.2026 04:30 2,1 °C 1,7 °C -1,7 °C 95 % 993,2 hPa 0,0 l/m² 0 min 0 min 0 W/m² 6,4 km/h (2 Bft) 95,74 %
05.02.2026 04:32 2,1 °C 1,7 °C -1,7 °C 95 % 993,2 hPa 0,0 l/m² 0 min 0 min 0 W/m² 9,7 km/h (2 Bft) 100,00 %
05.02.2026 04:34 2,1 °C 1,7 °C -1,7 °C 95 % 993,1 hPa 0,0 l/m² 0 min 0 min 0 W/m² 6,4 km/h (2 Bft) 100,00 %
05.02.2026 04:36 2,1 °C 1,7 °C -1,7 °C 95 % 993,2 hPa 0,0 l/m² 0 min 0 min 0 W/m² 6,4 km/h (2 Bft) 97,87 %
05.02.2026 04:38 2,1 °C 1,7 °C -1,7 °C 95 % 993,1 hPa 0,0 l/m² 0 min 0 min 0 W/m² 9,7 km/h (2 Bft) 97,83 %
05.02.2026 04:40 2,1 °C 1,7 °C -1,7 °C 95 % 993,1 hPa 0,0 l/m² 0 min 0 min 0 W/m² 9,7 km/h (2 Bft) 97,87 %
05.02.2026 04:42 2,1 °C 1,7 °C -1,7 °C 95 % 993,1 hPa 0,0 l/m² 0 min 0 min 0 W/m² 12,9 km/h (3 Bft) 100,00 %
05.02.2026 04:44 2,1 °C 1,7 °C -1,7 °C 95 % 993,1 hPa 0,0 l/m² 0 min 0 min 0 W/m² 6,4 km/h (2 Bft) 97,87 %
05.02.2026 04:46 2,1 °C 1,7 °C -1,7 °C 95 % 993,1 hPa 0,0 l/m² 0 min 0 min 0 W/m² 9,7 km/h (2 Bft) 100,00 %
05.02.2026 04:48 2,2 °C 1,7 °C -1,7 °C 95 % 993,1 hPa 0,0 l/m² 0 min 0 min 0 W/m² 9,7 km/h (2 Bft) 100,00 %
05.02.2026 04:50 2,2 °C 1,7 °C -1,7 °C 95 % 993,1 hPa 0,0 l/m² 0 min 0 min 0 W/m² 6,4 km/h (2 Bft) 97,87 %
05.02.2026 04:52 2,2 °C 1,7 °C -1,7 °C 95 % 993,1 hPa 0,0 l/m² 0 min 0 min 0 W/m² 9,7 km/h (2 Bft) 97,87 %
05.02.2026 04:54 2,2 °C 1,7 °C -1,7 °C 95 % 993,1 hPa 0,0 l/m² 0 min 0 min 0 W/m² 6,4 km/h (2 Bft) 97,87 %
05.02.2026 04:56 2,2 °C 1,7 °C -1,7 °C 95 % 993,1 hPa 0,0 l/m² 0 min 0 min 0 W/m² 9,7 km/h (2 Bft) 97,87 %
05.02.2026 04:58 2,2 °C 1,7 °C -1,7 °C 95 % 993,1 hPa 0,0 l/m² 0 min 0 min 0 W/m² 9,7 km/h (2 Bft) 97,87 %
05.02.2026 05:00 2,2 °C 1,7 °C -1,7 °C 95 % 993,1 hPa 0,0 l/m² 0 min 0 min 0 W/m² 12,9 km/h (3 Bft) 97,87 %
05.02.2026 05:02 2,2 °C 1,7 °C -1,7 °C 95 % 993,1 hPa 0,0 l/m² 0 min 0 min 0 W/m² 9,7 km/h (2 Bft) 97,83 %
05.02.2026 05:04 2,2 °C 1,7 °C -1,7 °C 95 % 993,0 hPa 0,0 l/m² 0 min 0 min 0 W/m² 6,4 km/h (2 Bft) 97,87 %
05.02.2026 05:06 2,2 °C 1,7 °C -1,7 °C 95 % 993,0 hPa 0,0 l/m² 0 min 0 min 0 W/m² 6,4 km/h (2 Bft) 97,87 %
05.02.2026 05:08 2,2 °C 1,7 °C -1,7 °C 95 % 992,9 hPa 0,0 l/m² 0 min 0 min 0 W/m² 9,7 km/h (2 Bft) 97,92 %
05.02.2026 05:10 2,3 °C 1,7 °C -1,7 °C 95 % 993,0 hPa 0,0 l/m² 0 min 0 min 0 W/m² 9,7 km/h (2 Bft) 97,87 %
05.02.2026 05:12 2,3 °C 1,7 °C -1,7 °C 95 % 992,9 hPa 0,0 l/m² 0 min 0 min 0 W/m² 6,4 km/h (2 Bft) 97,83 %
05.02.2026 05:14 2,3 °C 1,7 °C -1,7 °C 95 % 992,9 hPa 0,0 l/m² 0 min 0 min 0 W/m² 6,4 km/h (2 Bft) 53,33 %
05.02.2026 05:16 2,3 °C 1,7 °C -1,7 °C 95 % 992,9 hPa 0,0 l/m² 0 min 0 min 0 W/m² 12,9 km/h (3 Bft) 93,62 %
05.02.2026 05:18 2,3 °C 1,7 °C -1,7 °C 95 % 992,9 hPa 0,0 l/m² 0 min 0 min 0 W/m² 9,7 km/h (2 Bft) 95,74 %
05.02.2026 05:20 2,3 °C 1,7 °C -1,7 °C 95 % 992,8 hPa 0,0 l/m² 0 min 0 min 0 W/m² 9,7 km/h (2 Bft) 93,62 %
05.02.2026 05:22 2,3 °C 1,7 °C -1,7 °C 95 % 992,9 hPa 0,0 l/m² 0 min 0 min 0 W/m² 9,7 km/h (2 Bft) 95,74 %
05.02.2026 05:24 2,3 °C 1,7 °C -1,7 °C 95 % 992,8 hPa 0,0 l/m² 0 min 0 min 0 W/m² 6,4 km/h (2 Bft) 95,65 %
05.02.2026 05:26 2,3 °C 1,7 °C -1,7 °C 95 % 992,8 hPa 0,0 l/m² 0 min 0 min 0 W/m² 6,4 km/h (2 Bft) 93,62 %
05.02.2026 05:28 2,3 °C 1,7 °C -1,7 °C 95 % 992,8 hPa 0,0 l/m² 0 min 0 min 0 W/m² 9,7 km/h (2 Bft) 95,74 %
05.02.2026 05:30 2,3 °C 1,7 °C -1,7 °C 95 % 992,8 hPa 0,0 l/m² 0 min 0 min 0 W/m² 9,7 km/h (2 Bft) 95,74 %
05.02.2026 05:32 2,3 °C 1,7 °C -1,7 °C 95 % 992,8 hPa 0,0 l/m² 0 min 0 min 0 W/m² 6,4 km/h (2 Bft) 97,87 %
05.02.2026 05:34 2,3 °C 1,7 °C -1,7 °C 95 % 992,8 hPa 0,0 l/m² 0 min 0 min 0 W/m² 6,4 km/h (2 Bft) 97,87 %
05.02.2026 05:36 2,3 °C 1,7 °C -1,7 °C 95 % 992,8 hPa 0,0 l/m² 0 min 0 min 0 W/m² 9,7 km/h (2 Bft) 97,83 %
05.02.2026 05:38 2,3 °C 1,7 °C -1,7 °C 95 % 992,7 hPa 0,0 l/m² 0 min 0 min 0 W/m² 6,4 km/h (2 Bft) 100,00 %
05.02.2026 05:40 2,3 °C 1,7 °C -1,7 °C 94 % 992,7 hPa 0,0 l/m² 0 min 0 min 0 W/m² 9,7 km/h (2 Bft) 97,87 %
05.02.2026 05:42 2,3 °C 1,7 °C -1,7 °C 94 % 992,7 hPa 0,0 l/m² 0 min 0 min 0 W/m² 9,7 km/h (2 Bft) 97,87 %
05.02.2026 05:44 2,3 °C 1,7 °C -1,7 °C 94 % 992,7 hPa 0,0 l/m² 0 min 0 min 0 W/m² 6,4 km/h (2 Bft) 97,87 %
05.02.2026 05:46 2,4 °C 1,7 °C -1,7 °C 94 % 992,7 hPa 0,0 l/m² 0 min 0 min 0 W/m² 3,2 km/h (1 Bft) 95,74 %
05.02.2026 05:48 2,4 °C 1,7 °C -1,7 °C 94 % 992,7 hPa 0,0 l/m² 0 min 0 min 0 W/m² 6,4 km/h (2 Bft) 93,48 %
05.02.2026 05:50 2,4 °C 1,7 °C -1,7 °C 94 % 992,7 hPa 0,0 l/m² 0 min 0 min 0 W/m² 6,4 km/h (2 Bft) 100,00 %
05.02.2026 05:52 2,4 °C 1,7 °C -1,7 °C 94 % 992,7 hPa 0,0 l/m² 0 min 0 min 0 W/m² 6,4 km/h (2 Bft) 100,00 %
05.02.2026 05:54 2,4 °C 1,7 °C -1,7 °C 94 % 992,6 hPa 0,0 l/m² 0 min 0 min 0 W/m² 9,7 km/h (2 Bft) 100,00 %
05.02.2026 05:56 2,4 °C 1,7 °C -1,7 °C 94 % 992,6 hPa 0,0 l/m² 0 min 0 min 0 W/m² 12,9 km/h (3 Bft) 100,00 %
05.02.2026 05:58 2,4 °C 1,7 °C -1,7 °C 94 % 992,6 hPa 0,0 l/m² 0 min 0 min 0 W/m² 6,4 km/h (2 Bft) 100,00 %
05.02.2026 06:00 2,4 °C 1,7 °C -1,7 °C 94 % 992,5 hPa 0,0 l/m² 0 min 0 min 0 W/m² 9,7 km/h (2 Bft) 95,65 %
05.02.2026 06:02 2,3 °C 1,7 °C -1,7 °C 94 % 992,5 hPa 0,0 l/m² 0 min 0 min 0 W/m² 12,9 km/h (3 Bft) 100,00 %
05.02.2026 06:04 2,4 °C 1,7 °C -1,7 °C 94 % 992,5 hPa 0,0 l/m² 0 min 0 min 0 W/m² 9,7 km/h (2 Bft) 100,00 %
05.02.2026 06:08 2,4 °C 1,7 °C -1,7 °C 94 % 992,5 hPa 0,0 l/m² 0 min 0 min 0 W/m² 6,4 km/h (2 Bft) 100,00 %
05.02.2026 06:10 2,3 °C 1,7 °C -1,7 °C 94 % 992,5 hPa 0,0 l/m² 0 min 0 min 0 W/m² 6,4 km/h (2 Bft) 100,00 %
05.02.2026 06:12 2,4 °C 1,7 °C -1,7 °C 94 % 992,5 hPa 0,0 l/m² 0 min 0 min 0 W/m² 3,2 km/h (1 Bft) 100,00 %
05.02.2026 06:14 2,4 °C 1,7 °C -1,7 °C 94 % 992,5 hPa 0,0 l/m² 0 min 0 min 0 W/m² 3,2 km/h (1 Bft) 100,00 %
05.02.2026 06:16 2,4 °C 1,7 °C -1,7 °C 94 % 992,6 hPa 0,0 l/m² 0 min 0 min 0 W/m² 6,4 km/h (2 Bft) 100,00 %
05.02.2026 06:18 2,4 °C 1,7 °C -1,7 °C 94 % 992,5 hPa 0,0 l/m² 0 min 0 min 0 W/m² 9,7 km/h (2 Bft) 100,00 %
05.02.2026 06:20 2,4 °C 1,7 °C -1,7 °C 94 % 992,5 hPa 0,0 l/m² 0 min 0 min 0 W/m² 6,4 km/h (2 Bft) 100,00 %
05.02.2026 06:22 2,4 °C 1,7 °C -1,7 °C 94 % 992,5 hPa 0,0 l/m² 0 min 0 min 0 W/m² 6,4 km/h (2 Bft) 100,00 %
05.02.2026 06:24 2,4 °C 2,2 °C -1,7 °C 94 % 992,5 hPa 0,0 l/m² 0 min 0 min 0 W/m² 6,4 km/h (2 Bft) 97,87 %
05.02.2026 06:26 2,4 °C 2,2 °C -1,7 °C 94 % 992,4 hPa 0,0 l/m² 0 min 0 min 0 W/m² 6,4 km/h (2 Bft) 97,87 %
05.02.2026 06:28 2,4 °C 2,2 °C -1,7 °C 94 % 992,4 hPa 0,0 l/m² 0 min 0 min 0 W/m² 6,4 km/h (2 Bft) 97,87 %
05.02.2026 06:30 2,4 °C 2,2 °C -1,7 °C 94 % 992,4 hPa 0,0 l/m² 0 min 0 min 0 W/m² 6,4 km/h (2 Bft) 95,74 %
05.02.2026 06:32 2,4 °C 2,2 °C -1,1 °C 94 % 992,4 hPa 0,0 l/m² 0 min 0 min 0 W/m² 6,4 km/h (2 Bft) 97,87 %
05.02.2026 06:34 2,5 °C 2,2 °C -1,1 °C 94 % 992,4 hPa 0,0 l/m² 0 min 0 min 0 W/m² 6,4 km/h (2 Bft) 97,83 %
05.02.2026 06:36 2,6 °C 2,2 °C -1,1 °C 94 % 992,4 hPa 0,0 l/m² 0 min 0 min 0 W/m² 12,9 km/h (3 Bft) 97,87 %
05.02.2026 06:38 2,6 °C 2,8 °C -1,1 °C 94 % 992,3 hPa 0,0 l/m² 0 min 0 min 0 W/m² 6,4 km/h (2 Bft) 97,87 %
05.02.2026 06:40 2,7 °C 2,8 °C -1,1 °C 94 % 992,4 hPa 0,0 l/m² 0 min 0 min 0 W/m² 12,9 km/h (3 Bft) 97,87 %
05.02.2026 06:42 2,7 °C 2,8 °C -1,1 °C 94 % 992,3 hPa 0,0 l/m² 0 min 0 min 0 W/m² 9,7 km/h (2 Bft) 95,74 %
05.02.2026 06:44 2,8 °C 2,8 °C -0,6 °C 94 % 992,3 hPa 0,0 l/m² 0 min 0 min 0 W/m² 12,9 km/h (3 Bft) 97,87 %
05.02.2026 06:46 2,8 °C 2,8 °C -0,6 °C 94 % 992,3 hPa 0,0 l/m² 0 min 0 min 0 W/m² 12,9 km/h (3 Bft) 97,83 %
05.02.2026 06:48 2,9 °C 2,8 °C -0,6 °C 94 % 992,3 hPa 0,0 l/m² 0 min 0 min 0 W/m² 12,9 km/h (3 Bft) 95,74 %
05.02.2026 06:50 2,9 °C 2,8 °C -0,6 °C 94 % 992,3 hPa 0,0 l/m² 0 min 0 min 0 W/m² 12,9 km/h (3 Bft) 95,74 %
05.02.2026 06:52 3,0 °C 2,8 °C -0,6 °C 94 % 992,3 hPa 0,0 l/m² 0 min 0 min 0 W/m² 6,4 km/h (2 Bft) 97,87 %
05.02.2026 06:54 3,0 °C 2,8 °C -0,6 °C 94 % 992,2 hPa 0,0 l/m² 0 min 0 min 0 W/m² 12,9 km/h (3 Bft) 97,87 %
05.02.2026 06:56 3,1 °C 2,8 °C -0,6 °C 94 % 992,2 hPa 0,0 l/m² 0 min 0 min 0 W/m² 12,9 km/h (3 Bft) 97,87 %
05.02.2026 06:58 3,1 °C 2,8 °C -0,6 °C 94 % 992,2 hPa 0,0 l/m² 0 min 0 min 0 W/m² 6,4 km/h (2 Bft) 97,83 %
05.02.2026 07:00 3,1 °C 2,8 °C -0,6 °C 93 % 992,2 hPa 0,0 l/m² 0 min 0 min 0 W/m² 6,4 km/h (2 Bft) 95,74 %
05.02.2026 07:02 3,2 °C 2,8 °C -0,6 °C 93 % 992,2 hPa 0,0 l/m² 0 min 0 min 0 W/m² 16,1 km/h (3 Bft) 95,74 %
05.02.2026 07:04 3,2 °C 2,8 °C -0,6 °C 93 % 992,2 hPa 0,0 l/m² 0 min 0 min 0 W/m² 19,3 km/h (3 Bft) 95,74 %
05.02.2026 07:06 3,2 °C 2,8 °C -0,6 °C 93 % 992,1 hPa 0,0 l/m² 0 min 0 min 0 W/m² 19,3 km/h (3 Bft) 97,87 %
05.02.2026 07:08 3,3 °C 2,8 °C -0,6 °C 93 % 992,1 hPa 0,0 l/m² 0 min 0 min 0 W/m² 16,1 km/h (3 Bft) 97,96 %
05.02.2026 07:10 3,3 °C 2,8 °C -0,6 °C 92 % 992,1 hPa 0,0 l/m² 0 min 0 min 0 W/m² 19,3 km/h (3 Bft) 93,48 %
05.02.2026 07:12 3,3 °C 2,8 °C -0,6 °C 92 % 992,1 hPa 0,0 l/m² 0 min 0 min 0 W/m² 12,9 km/h (3 Bft) 93,62 %
05.02.2026 07:14 3,3 °C 2,8 °C -0,6 °C 92 % 992,0 hPa 0,0 l/m² 0 min 0 min 0 W/m² 12,9 km/h (3 Bft) 97,87 %
05.02.2026 07:16 3,3 °C 2,8 °C -0,6 °C 92 % 992,0 hPa 0,0 l/m² 0 min 0 min 0 W/m² 16,1 km/h (3 Bft) 95,74 %
05.02.2026 07:18 3,3 °C 2,8 °C -0,6 °C 92 % 992,1 hPa 0,0 l/m² 0 min 0 min 0 W/m² 16,1 km/h (3 Bft) 93,62 %
05.02.2026 07:20 3,3 °C 2,8 °C -0,6 °C 92 % 992,1 hPa 0,0 l/m² 0 min 0 min 0 W/m² 16,1 km/h (3 Bft) 95,65 %
05.02.2026 07:22 3,4 °C 2,8 °C -0,6 °C 91 % 992,2 hPa 0,0 l/m² 0 min 0 min 0 W/m² 12,9 km/h (3 Bft) 93,62 %
05.02.2026 07:24 3,4 °C 2,8 °C -0,6 °C 91 % 992,1 hPa 0,0 l/m² 0 min 0 min 0 W/m² 22,5 km/h (4 Bft) 95,74 %
05.02.2026 07:26 3,4 °C 2,8 °C -0,6 °C 91 % 992,2 hPa 0,0 l/m² 0 min 0 min 0 W/m² 19,3 km/h (3 Bft) 93,62 %
05.02.2026 07:28 3,4 °C 2,8 °C -0,6 °C 91 % 992,1 hPa 0,0 l/m² 0 min 0 min 0 W/m² 16,1 km/h (3 Bft) 95,74 %
05.02.2026 07:30 3,4 °C 2,8 °C -0,6 °C 91 % 992,1 hPa 0,0 l/m² 0 min 0 min 0 W/m² 16,1 km/h (3 Bft) 91,49 %
05.02.2026 07:32 3,4 °C 2,8 °C -0,6 °C 91 % 992,1 hPa 0,0 l/m² 0 min 0 min 0 W/m² 16,1 km/h (3 Bft) 95,74 %
05.02.2026 07:34 3,4 °C 2,8 °C -0,6 °C 91 % 992,1 hPa 0,0 l/m² 0 min 0 min 0 W/m² 16,1 km/h (3 Bft) 95,65 %
05.02.2026 07:36 3,4 °C 2,8 °C -0,6 °C 90 % 992,1 hPa 0,0 l/m² 0 min 0 min 0 W/m² 16,1 km/h (3 Bft) 93,62 %
05.02.2026 07:38 3,4 °C 2,8 °C -0,6 °C 90 % 992,0 hPa 0,0 l/m² 0 min 0 min 0 W/m² 16,1 km/h (3 Bft) 95,74 %
05.02.2026 07:40 3,4 °C 2,8 °C -0,6 °C 90 % 992,1 hPa 0,0 l/m² 0 min 0 min 0 W/m² 16,1 km/h (3 Bft) 93,62 %
05.02.2026 07:42 3,4 °C 2,8 °C -0,6 °C 90 % 992,0 hPa 0,0 l/m² 0 min 0 min 0 W/m² 16,1 km/h (3 Bft) 93,62 %
05.02.2026 07:44 3,4 °C 2,8 °C -0,6 °C 90 % 992,0 hPa 0,0 l/m² 0 min 0 min 0 W/m² 16,1 km/h (3 Bft) 97,83 %
05.02.2026 07:46 3,4 °C 2,8 °C -0,6 °C 90 % 992,0 hPa 0,0 l/m² 0 min 0 min 0 W/m² 12,9 km/h (3 Bft) 95,74 %
05.02.2026 07:48 3,4 °C 2,8 °C -0,6 °C 90 % 992,0 hPa 0,0 l/m² 0 min 0 min 0 W/m² 12,9 km/h (3 Bft) 97,87 %
05.02.2026 07:50 3,4 °C 2,8 °C -0,6 °C 90 % 992,0 hPa 0,0 l/m² 0 min 0 min 0 W/m² 22,5 km/h (4 Bft) 97,87 %
05.02.2026 07:52 3,4 °C 2,8 °C -0,6 °C 90 % 991,9 hPa 0,0 l/m² 0 min 0 min 0 W/m² 19,3 km/h (3 Bft) 100,00 %
05.02.2026 07:54 3,4 °C 2,8 °C -0,6 °C 90 % 991,9 hPa 0,0 l/m² 0 min 0 min 0 W/m² 22,5 km/h (4 Bft) 97,87 %
05.02.2026 07:56 3,4 °C 2,8 °C -0,6 °C 90 % 991,9 hPa 0,0 l/m² 0 min 0 min 0 W/m² 12,9 km/h (3 Bft) 43,59 %
05.02.2026 07:58 3,4 °C 2,8 °C -0,6 °C 90 % 991,9 hPa 0,0 l/m² 0 min 0 min 0 W/m² 16,1 km/h (3 Bft) 97,78 %
05.02.2026 08:00 3,4 °C 2,8 °C -0,6 °C 90 % 991,9 hPa 0,0 l/m² 0 min 0 min 0 W/m² 16,1 km/h (3 Bft) 93,62 %
05.02.2026 08:02 3,4 °C 2,8 °C -0,6 °C 90 % 992,0 hPa 0,0 l/m² 0 min 0 min 0 W/m² 12,9 km/h (3 Bft) 100,00 %
05.02.2026 08:04 3,4 °C 2,8 °C -0,6 °C 90 % 992,0 hPa 0,0 l/m² 0 min 0 min 0 W/m² 16,1 km/h (3 Bft) 100,00 %
05.02.2026 08:06 3,4 °C 2,8 °C -0,6 °C 90 % 991,9 hPa 0,0 l/m² 0 min 0 min 0 W/m² 16,1 km/h (3 Bft) 97,92 %
05.02.2026 08:08 3,4 °C 2,8 °C -0,6 °C 89 % 991,9 hPa 0,0 l/m² 0 min 0 min 0 W/m² 19,3 km/h (3 Bft) 97,87 %
05.02.2026 08:10 3,4 °C 2,8 °C -0,6 °C 89 % 992,0 hPa 0,0 l/m² 0 min 0 min 0 W/m² 16,1 km/h (3 Bft) 100,00 %
05.02.2026 08:12 3,4 °C 2,8 °C -0,6 °C 89 % 991,9 hPa 0,0 l/m² 0 min 0 min 0 W/m² 12,9 km/h (3 Bft) 100,00 %
05.02.2026 08:14 3,4 °C 2,8 °C -0,6 °C 89 % 991,9 hPa 0,0 l/m² 0 min 0 min 0 W/m² 22,5 km/h (4 Bft) 100,00 %
05.02.2026 08:16 3,4 °C 2,8 °C -0,6 °C 89 % 992,0 hPa 0,0 l/m² 0 min 0 min 1 W/m² 22,5 km/h (4 Bft) 100,00 %
05.02.2026 08:18 3,4 °C 2,8 °C -0,6 °C 89 % 992,0 hPa 0,0 l/m² 0 min 0 min 5 W/m² 19,3 km/h (3 Bft) 100,00 %
05.02.2026 08:20 3,4 °C 2,8 °C -0,6 °C 89 % 991,9 hPa 0,0 l/m² 0 min 0 min 6 W/m² 19,3 km/h (3 Bft) 100,00 %
05.02.2026 08:22 3,4 °C 2,8 °C -0,6 °C 89 % 991,9 hPa 0,0 l/m² 0 min 0 min 7 W/m² 22,5 km/h (4 Bft) 100,00 %
05.02.2026 08:24 3,4 °C 2,8 °C -0,6 °C 89 % 991,9 hPa 0,0 l/m² 0 min 0 min 8 W/m² 16,1 km/h (3 Bft) 100,00 %
05.02.2026 08:26 3,4 °C 2,8 °C -0,6 °C 89 % 992,0 hPa 0,0 l/m² 0 min 0 min 9 W/m² 9,7 km/h (2 Bft) 100,00 %
05.02.2026 08:28 3,4 °C 2,8 °C -0,6 °C 89 % 992,0 hPa 0,0 l/m² 0 min 0 min 9 W/m² 16,1 km/h (3 Bft) 100,00 %
05.02.2026 08:30 3,4 °C 2,8 °C -0,6 °C 89 % 992,0 hPa 0,0 l/m² 0 min 0 min 9 W/m² 19,3 km/h (3 Bft) 100,00 %
05.02.2026 08:32 3,4 °C 2,8 °C -0,6 °C 89 % 992,0 hPa 0,0 l/m² 0 min 0 min 10 W/m² 22,5 km/h (4 Bft) 100,00 %
05.02.2026 08:34 3,4 °C 2,8 °C -0,6 °C 89 % 992,1 hPa 0,0 l/m² 0 min 0 min 9 W/m² 16,1 km/h (3 Bft) 100,00 %
05.02.2026 08:36 3,4 °C 2,8 °C -0,6 °C 89 % 992,1 hPa 0,0 l/m² 0 min 0 min 11 W/m² 12,9 km/h (3 Bft) 100,00 %
05.02.2026 08:38 3,4 °C 2,8 °C -0,6 °C 89 % 992,1 hPa 0,0 l/m² 0 min 0 min 11 W/m² 16,1 km/h (3 Bft) 100,00 %
05.02.2026 08:40 3,4 °C 2,8 °C -0,6 °C 89 % 992,1 hPa 0,0 l/m² 0 min 0 min 12 W/m² 16,1 km/h (3 Bft) 97,87 %
05.02.2026 08:42 3,4 °C 2,8 °C -0,6 °C 89 % 992,0 hPa 0,0 l/m² 0 min 0 min 14 W/m² 16,1 km/h (3 Bft) 100,00 %
05.02.2026 08:44 3,4 °C 2,8 °C -0,6 °C 89 % 992,1 hPa 0,0 l/m² 0 min 0 min 14 W/m² 12,9 km/h (3 Bft) 100,00 %
05.02.2026 08:46 3,4 °C 2,8 °C -0,6 °C 89 % 992,0 hPa 0,0 l/m² 0 min 0 min 16 W/m² 16,1 km/h (3 Bft) 100,00 %
05.02.2026 08:48 3,4 °C 2,8 °C -0,6 °C 89 % 992,1 hPa 0,0 l/m² 0 min 0 min 18 W/m² 16,1 km/h (3 Bft) 100,00 %
05.02.2026 08:50 3,4 °C 2,8 °C -0,6 °C 89 % 992,0 hPa 0,0 l/m² 0 min 0 min 19 W/m² 12,9 km/h (3 Bft) 97,87 %
05.02.2026 08:52 3,4 °C 2,8 °C -0,6 °C 89 % 992,0 hPa 0,0 l/m² 0 min 0 min 21 W/m² 12,9 km/h (3 Bft) 100,00 %
05.02.2026 08:54 3,4 °C 2,8 °C -0,6 °C 89 % 992,1 hPa 0,0 l/m² 0 min 0 min 22 W/m² 12,9 km/h (3 Bft) 100,00 %
05.02.2026 08:56 3,4 °C 2,8 °C -0,6 °C 89 % 992,1 hPa 0,0 l/m² 0 min 0 min 26 W/m² 16,1 km/h (3 Bft) 97,87 %
05.02.2026 08:58 3,4 °C 2,8 °C -0,6 °C 89 % 992,0 hPa 0,0 l/m² 0 min 0 min 28 W/m² 12,9 km/h (3 Bft) 100,00 %
05.02.2026 09:00 3,4 °C 2,8 °C -0,6 °C 89 % 992,1 hPa 0,0 l/m² 0 min 0 min 32 W/m² 12,9 km/h (3 Bft) 100,00 %
05.02.2026 09:02 3,4 °C 2,8 °C -0,6 °C 89 % 992,1 hPa 0,0 l/m² 0 min 0 min 35 W/m² 12,9 km/h (3 Bft) 97,87 %
05.02.2026 09:04 3,4 °C 2,8 °C -0,6 °C 89 % 992,1 hPa 0,0 l/m² 0 min 0 min 40 W/m² 12,9 km/h (3 Bft) 94,59 %
05.02.2026 09:06 3,4 °C 2,8 °C -0,6 °C 89 % 992,1 hPa 0,0 l/m² 0 min 0 min 40 W/m² 16,1 km/h (3 Bft) 97,87 %
05.02.2026 09:08 3,4 °C 2,8 °C -0,6 °C 89 % 992,1 hPa 0,0 l/m² 0 min 0 min 44 W/m² 16,1 km/h (3 Bft) 97,87 %
05.02.2026 09:10 3,3 °C 2,8 °C -0,6 °C 89 % 992,1 hPa 0,0 l/m² 0 min 0 min 46 W/m² 16,1 km/h (3 Bft) 93,62 %
05.02.2026 09:12 3,3 °C 2,8 °C -0,6 °C 89 % 992,1 hPa 0,0 l/m² 0 min 0 min 48 W/m² 16,1 km/h (3 Bft) 97,87 %
05.02.2026 09:14 3,3 °C 2,8 °C -0,6 °C 89 % 992,1 hPa 0,0 l/m² 0 min 0 min 51 W/m² 19,3 km/h (3 Bft) 93,62 %
05.02.2026 09:16 3,3 °C 2,8 °C -0,6 °C 89 % 992,1 hPa 0,0 l/m² 0 min 0 min 50 W/m² 16,1 km/h (3 Bft) 100,00 %
05.02.2026 09:18 3,3 °C 2,8 °C -0,6 °C 89 % 992,1 hPa 0,0 l/m² 0 min 0 min 54 W/m² 12,9 km/h (3 Bft) 95,74 %
05.02.2026 09:20 3,3 °C 2,8 °C -0,6 °C 89 % 992,2 hPa 0,0 l/m² 0 min 0 min 54 W/m² 12,9 km/h (3 Bft) 95,65 %
05.02.2026 09:22 3,3 °C 3,3 °C -0,6 °C 89 % 992,2 hPa 0,0 l/m² 0 min 0 min 55 W/m² 12,9 km/h (3 Bft) 95,74 %
05.02.2026 09:24 3,3 °C 2,8 °C -0,6 °C 89 % 992,2 hPa 0,0 l/m² 0 min 0 min 56 W/m² 19,3 km/h (3 Bft) 95,74 %
05.02.2026 09:26 3,3 °C 3,3 °C -0,6 °C 89 % 992,2 hPa 0,0 l/m² 0 min 0 min 57 W/m² 19,3 km/h (3 Bft) 91,49 %
05.02.2026 09:28 3,3 °C 3,3 °C -0,6 °C 89 % 992,2 hPa 0,0 l/m² 0 min 0 min 61 W/m² 25,7 km/h (4 Bft) 95,74 %
05.02.2026 09:30 3,3 °C 3,3 °C -0,6 °C 89 % 992,2 hPa 0,0 l/m² 0 min 0 min 67 W/m² 35,4 km/h (5 Bft) 95,74 %
05.02.2026 09:32 3,3 °C 3,3 °C -0,6 °C 89 % 992,2 hPa 0,0 l/m² 0 min 0 min 84 W/m² 16,1 km/h (3 Bft) 95,65 %
05.02.2026 09:34 3,4 °C 3,3 °C -0,6 °C 89 % 992,2 hPa 0,0 l/m² 0 min 0 min 90 W/m² 16,1 km/h (3 Bft) 95,74 %
05.02.2026 09:36 3,4 °C 3,3 °C -0,6 °C 89 % 992,2 hPa 0,0 l/m² 0 min 0 min 93 W/m² 16,1 km/h (3 Bft) 93,62 %
05.02.2026 09:38 3,4 °C 3,3 °C -0,6 °C 89 % 992,1 hPa 0,0 l/m² 2 min 0 min 102 W/m² 16,1 km/h (3 Bft) 93,62 %
05.02.2026 09:40 3,4 °C 3,9 °C -0,6 °C 89 % 992,1 hPa 0,0 l/m² 2 min 0 min 108 W/m² 22,5 km/h (4 Bft) 93,62 %
05.02.2026 09:42 3,5 °C 3,9 °C -0,6 °C 89 % 992,1 hPa 0,0 l/m² 2 min 0 min 115 W/m² 22,5 km/h (4 Bft) 97,87 %
05.02.2026 09:44 3,5 °C 3,9 °C 0,0 °C 89 % 992,1 hPa 0,0 l/m² 2 min 0 min 119 W/m² 16,1 km/h (3 Bft) 93,48 %
05.02.2026 09:46 3,6 °C 3,9 °C 0,0 °C 89 % 992,1 hPa 0,0 l/m² 2 min 0 min 109 W/m² 16,1 km/h (3 Bft) 95,74 %
05.02.2026 09:48 3,6 °C 3,9 °C 0,0 °C 89 % 992,1 hPa 0,0 l/m² 0 min 0 min 98 W/m² 12,9 km/h (3 Bft) 95,74 %
05.02.2026 09:50 3,6 °C 3,9 °C 0,0 °C 89 % 992,1 hPa 0,0 l/m² 0 min 0 min 105 W/m² 12,9 km/h (3 Bft) 97,87 %
05.02.2026 09:52 3,7 °C 3,9 °C 0,0 °C 89 % 992,0 hPa 0,0 l/m² 0 min 0 min 110 W/m² 16,1 km/h (3 Bft) 95,74 %
05.02.2026 09:54 3,7 °C 3,9 °C 0,0 °C 89 % 992,0 hPa 0,0 l/m² 2 min 0 min 122 W/m² 16,1 km/h (3 Bft) 93,62 %
05.02.2026 09:56 3,7 °C 4,4 °C 0,0 °C 89 % 992,0 hPa 0,0 l/m² 2 min 0 min 125 W/m² 16,1 km/h (3 Bft) 95,65 %
05.02.2026 09:58 3,8 °C 3,9 °C 0,0 °C 89 % 992,1 hPa 0,0 l/m² 2 min 0 min 117 W/m² 16,1 km/h (3 Bft) 93,62 %
05.02.2026 10:00 3,8 °C 3,9 °C 0,0 °C 89 % 992,1 hPa 0,0 l/m² 0 min 0 min 84 W/m² 19,3 km/h (3 Bft) 93,62 %
05.02.2026 10:02 3,8 °C 3,9 °C 0,0 °C 89 % 992,1 hPa 0,0 l/m² 0 min 0 min 75 W/m² 16,1 km/h (3 Bft) 93,62 %
05.02.2026 10:04 3,8 °C 3,9 °C 0,0 °C 89 % 992,0 hPa 0,0 l/m² 0 min 0 min 81 W/m² 16,1 km/h (3 Bft) 95,74 %
05.02.2026 10:06 3,8 °C 3,9 °C 0,0 °C 89 % 992,1 hPa 0,0 l/m² 0 min 0 min 90 W/m² 25,7 km/h (4 Bft) 97,87 %
05.02.2026 10:08 3,8 °C 3,9 °C 0,0 °C 89 % 992,1 hPa 0,0 l/m² 0 min 0 min 96 W/m² 25,7 km/h (4 Bft) 95,74 %
05.02.2026 10:10 3,8 °C 3,9 °C 0,0 °C 88 % 992,1 hPa 0,0 l/m² 0 min 0 min 113 W/m² 22,5 km/h (4 Bft) 97,87 %
05.02.2026 10:12 3,8 °C 4,4 °C 0,0 °C 88 % 992,0 hPa 0,0 l/m² 2 min 0 min 133 W/m² 22,5 km/h (4 Bft) 97,87 %
05.02.2026 10:14 3,8 °C 4,4 °C 0,0 °C 88 % 992,1 hPa 0,0 l/m² 2 min 0 min 151 W/m² 25,7 km/h (4 Bft) 95,74 %
05.02.2026 10:16 3,9 °C 5,0 °C 0,0 °C 88 % 992,1 hPa 0,0 l/m² 2 min 0 min 213 W/m² 19,3 km/h (3 Bft) 97,87 %
05.02.2026 10:18 3,9 °C 5,6 °C 0,6 °C 88 % 992,1 hPa 0,0 l/m² 2 min 0 min 277 W/m² 25,7 km/h (4 Bft) 97,83 %
05.02.2026 10:20 4,0 °C 6,1 °C 0,6 °C 88 % 992,1 hPa 0,0 l/m² 2 min 0 min 271 W/m² 22,5 km/h (4 Bft) 95,74 %
05.02.2026 10:22 4,1 °C 6,1 °C 0,6 °C 88 % 992,0 hPa 0,0 l/m² 2 min 0 min 201 W/m² 19,3 km/h (3 Bft) 93,62 %
05.02.2026 10:24 4,2 °C 5,6 °C 0,6 °C 88 % 992,0 hPa 0,0 l/m² 2 min 0 min 178 W/m² 12,9 km/h (3 Bft) 97,87 %
05.02.2026 10:26 4,2 °C 5,6 °C 0,6 °C 88 % 992,0 hPa 0,0 l/m² 2 min 0 min 176 W/m² 22,5 km/h (4 Bft) 97,73 %
05.02.2026 10:28 4,3 °C 5,6 °C 0,6 °C 88 % 992,0 hPa 0,0 l/m² 2 min 0 min 160 W/m² 16,1 km/h (3 Bft) 97,87 %
05.02.2026 10:30 4,3 °C 5,6 °C 0,6 °C 88 % 992,1 hPa 0,0 l/m² 2 min 0 min 179 W/m² 22,5 km/h (4 Bft) 97,87 %
05.02.2026 10:32 4,3 °C 6,1 °C 0,6 °C 88 % 992,1 hPa 0,0 l/m² 2 min 0 min 219 W/m² 19,3 km/h (3 Bft) 97,83 %
05.02.2026 10:34 4,4 °C 6,7 °C 0,6 °C 87 % 992,1 hPa 0,0 l/m² 2 min 0 min 241 W/m² 25,7 km/h (4 Bft) 97,87 %
05.02.2026 10:36 4,4 °C 6,1 °C 0,6 °C 87 % 992,1 hPa 0,0 l/m² 2 min 0 min 220 W/m² 22,5 km/h (4 Bft) 97,87 %
05.02.2026 10:38 4,4 °C 6,1 °C 0,6 °C 87 % 992,1 hPa 0,0 l/m² 0 min 0 min 127 W/m² 16,1 km/h (3 Bft) 97,87 %
05.02.2026 10:40 4,5 °C 6,7 °C 0,6 °C 87 % 992,1 hPa 0,0 l/m² 2 min 0 min 220 W/m² 12,9 km/h (3 Bft) 97,87 %
05.02.2026 10:42 4,5 °C 6,1 °C 0,6 °C 87 % 992,1 hPa 0,0 l/m² 2 min 0 min 164 W/m² 16,1 km/h (3 Bft) 97,87 %
05.02.2026 10:44 4,6 °C 5,6 °C 0,6 °C 87 % 992,1 hPa 0,0 l/m² 0 min 0 min 119 W/m² 19,3 km/h (3 Bft) 95,65 %
05.02.2026 10:46 4,6 °C 5,0 °C 0,6 °C 87 % 992,1 hPa 0,0 l/m² 0 min 0 min 118 W/m² 16,1 km/h (3 Bft) 95,74 %
05.02.2026 10:48 4,6 °C 5,6 °C 0,6 °C 87 % 992,1 hPa 0,0 l/m² 0 min 0 min 140 W/m² 19,3 km/h (3 Bft) 95,74 %
05.02.2026 10:50 4,6 °C 5,6 °C 0,6 °C 86 % 992,1 hPa 0,0 l/m² 2 min 0 min 168 W/m² 22,5 km/h (4 Bft) 97,87 %
05.02.2026 10:52 4,5 °C 6,7 °C 0,6 °C 86 % 992,1 hPa 0,0 l/m² 2 min 0 min 208 W/m² 19,3 km/h (3 Bft) 97,87 %
05.02.2026 10:54 4,6 °C 6,7 °C 0,6 °C 86 % 992,0 hPa 0,0 l/m² 2 min 0 min 318 W/m² 22,5 km/h (4 Bft) 97,87 %
05.02.2026 10:56 4,6 °C 7,8 °C 0,6 °C 86 % 992,0 hPa 0,0 l/m² 2 min 0 min 253 W/m² 19,3 km/h (3 Bft) 97,83 %
05.02.2026 10:58 4,6 °C 7,2 °C 0,6 °C 86 % 991,9 hPa 0,0 l/m² 2 min 0 min 193 W/m² 22,5 km/h (4 Bft) 100,00 %
05.02.2026 11:00 4,7 °C 7,2 °C 0,6 °C 86 % 991,9 hPa 0,0 l/m² 2 min 0 min 209 W/m² 22,5 km/h (4 Bft) 100,00 %
05.02.2026 11:02 4,7 °C 7,2 °C 0,6 °C 86 % 991,8 hPa 0,0 l/m² 2 min 0 min 220 W/m² 16,1 km/h (3 Bft) 97,87 %
05.02.2026 11:04 4,7 °C 8,3 °C 0,6 °C 86 % 991,9 hPa 0,0 l/m² 2 min 0 min 275 W/m² 35,4 km/h (5 Bft) 100,00 %
05.02.2026 11:06 4,8 °C 8,9 °C 1,1 °C 86 % 991,9 hPa 0,0 l/m² 2 min 0 min 371 W/m² 19,3 km/h (3 Bft) 96,55 %
05.02.2026 11:08 4,8 °C 10,6 °C 1,1 °C 86 % 991,9 hPa 0,0 l/m² 2 min 0 min 380 W/m² 22,5 km/h (4 Bft) 100,00 %
05.02.2026 11:10 4,9 °C 9,4 °C 1,1 °C 86 % 991,9 hPa 0,0 l/m² 2 min 0 min 391 W/m² 19,3 km/h (3 Bft) 93,62 %
05.02.2026 11:12 4,9 °C 7,8 °C 1,1 °C 86 % 991,9 hPa 0,0 l/m² 2 min 0 min 215 W/m² 19,3 km/h (3 Bft) 97,87 %
05.02.2026 11:14 5,0 °C 7,8 °C 1,1 °C 86 % 991,8 hPa 0,0 l/m² 2 min 0 min 237 W/m² 16,1 km/h (3 Bft) 97,87 %
05.02.2026 11:16 5,1 °C 9,4 °C 1,7 °C 86 % 991,8 hPa 0,0 l/m² 2 min 0 min 367 W/m² 19,3 km/h (3 Bft) 97,87 %
05.02.2026 11:18 5,2 °C 9,4 °C 1,7 °C 86 % 991,8 hPa 0,0 l/m² 2 min 0 min 396 W/m² 25,7 km/h (4 Bft) 97,87 %
05.02.2026 11:20 5,2 °C 9,4 °C 1,7 °C 85 % 991,8 hPa 0,0 l/m² 2 min 0 min 294 W/m² 22,5 km/h (4 Bft) 95,65 %
05.02.2026 11:22 5,3 °C 11,1 °C 1,7 °C 85 % 991,8 hPa 0,0 l/m² 2 min 0 min 345 W/m² 22,5 km/h (4 Bft) 97,87 %
05.02.2026 11:24 5,4 °C 10,0 °C 1,7 °C 85 % 991,8 hPa 0,0 l/m² 2 min 0 min 390 W/m² 22,5 km/h (4 Bft) 97,87 %
05.02.2026 11:26 5,5 °C 8,9 °C 1,7 °C 84 % 991,7 hPa 0,0 l/m² 2 min 0 min 255 W/m² 22,5 km/h (4 Bft) 97,87 %
05.02.2026 11:28 5,5 °C 7,8 °C 1,7 °C 84 % 991,7 hPa 0,0 l/m² 2 min 0 min 215 W/m² 25,7 km/h (4 Bft) 95,74 %
05.02.2026 11:30 5,5 °C 6,7 °C 1,7 °C 84 % 991,7 hPa 0,0 l/m² 2 min 0 min 188 W/m² 16,1 km/h (3 Bft) 97,87 %
05.02.2026 11:32 5,5 °C 6,7 °C 1,7 °C 83 % 991,7 hPa 0,0 l/m² 2 min 0 min 189 W/m² 19,3 km/h (3 Bft) 97,83 %
05.02.2026 11:34 5,5 °C 6,7 °C 1,7 °C 83 % 991,7 hPa 0,0 l/m² 2 min 0 min 199 W/m² 22,5 km/h (4 Bft) 97,87 %
05.02.2026 11:36 5,4 °C 6,7 °C 1,7 °C 83 % 991,6 hPa 0,0 l/m² 2 min 0 min 194 W/m² 19,3 km/h (3 Bft) 95,74 %
05.02.2026 11:38 5,4 °C 7,2 °C 1,7 °C 83 % 991,6 hPa 0,0 l/m² 2 min 0 min 188 W/m² 19,3 km/h (3 Bft) 97,87 %
05.02.2026 11:40 5,5 °C 8,9 °C 1,7 °C 83 % 991,7 hPa 0,0 l/m² 2 min 0 min 327 W/m² 19,3 km/h (3 Bft) 97,87 %
05.02.2026 11:42 5,6 °C 10,6 °C 1,7 °C 84 % 991,7 hPa 0,0 l/m² 2 min 0 min 347 W/m² 16,1 km/h (3 Bft) 95,74 %
05.02.2026 11:44 5,6 °C 11,1 °C 1,7 °C 84 % 991,7 hPa 0,0 l/m² 2 min 0 min 359 W/m² 12,9 km/h (3 Bft) 100,00 %
05.02.2026 11:46 5,7 °C 11,1 °C 1,7 °C 84 % 991,7 hPa 0,0 l/m² 2 min 0 min 271 W/m² 19,3 km/h (3 Bft) 100,00 %
05.02.2026 11:48 5,7 °C 8,3 °C 1,7 °C 84 % 991,7 hPa 0,0 l/m² 0 min 0 min 145 W/m² 22,5 km/h (4 Bft) 100,00 %
05.02.2026 11:50 5,7 °C 6,7 °C 1,7 °C 83 % 991,8 hPa 0,0 l/m² 0 min 0 min 93 W/m² 29,0 km/h (5 Bft) 100,00 %
05.02.2026 11:52 5,7 °C 6,1 °C 1,1 °C 83 % 991,8 hPa 0,0 l/m² 0 min 0 min 90 W/m² 16,1 km/h (3 Bft) 100,00 %
05.02.2026 11:54 5,6 °C 5,6 °C 1,1 °C 82 % 991,7 hPa 0,0 l/m² 0 min 0 min 91 W/m² 19,3 km/h (3 Bft) 100,00 %
05.02.2026 11:56 5,6 °C 5,6 °C 1,1 °C 83 % 991,7 hPa 0,0 l/m² 0 min 0 min 95 W/m² 12,9 km/h (3 Bft) 100,00 %
05.02.2026 11:58 5,5 °C 5,6 °C 1,1 °C 83 % 991,6 hPa 0,0 l/m² 0 min 0 min 96 W/m² 19,3 km/h (3 Bft) 100,00 %
05.02.2026 12:00 5,4 °C 5,0 °C 1,1 °C 83 % 991,6 hPa 0,0 l/m² 0 min 0 min 91 W/m² 16,1 km/h (3 Bft) 100,00 %
05.02.2026 12:02 5,4 °C 5,0 °C 1,1 °C 83 % 991,6 hPa 0,0 l/m² 0 min 0 min 86 W/m² 16,1 km/h (3 Bft) 95,74 %
05.02.2026 12:04 5,3 °C 5,0 °C 1,1 °C 83 % 991,6 hPa 0,0 l/m² 0 min 0 min 83 W/m² 12,9 km/h (3 Bft) 97,87 %
05.02.2026 12:08 5,3 °C 5,0 °C 1,1 °C 84 % 991,5 hPa 0,0 l/m² 0 min 0 min 79 W/m² 19,3 km/h (3 Bft) 96,88 %
05.02.2026 12:10 5,2 °C 5,0 °C 1,1 °C 84 % 991,4 hPa 0,0 l/m² 0 min 0 min 92 W/m² 12,9 km/h (3 Bft) 93,62 %
05.02.2026 12:12 5,2 °C 5,0 °C 1,1 °C 84 % 991,5 hPa 0,0 l/m² 0 min 0 min 104 W/m² 12,9 km/h (3 Bft) 95,74 %
05.02.2026 12:14 5,2 °C 5,0 °C 1,1 °C 84 % 991,4 hPa 0,0 l/m² 0 min 0 min 112 W/m² 22,5 km/h (4 Bft) 97,87 %
05.02.2026 12:16 5,2 °C 5,6 °C 1,1 °C 84 % 991,4 hPa 0,0 l/m² 0 min 0 min 115 W/m² 22,5 km/h (4 Bft) 97,87 %
05.02.2026 12:18 5,2 °C 5,6 °C 1,1 °C 84 % 991,4 hPa 0,0 l/m² 0 min 0 min 122 W/m² 19,3 km/h (3 Bft) 95,74 %
05.02.2026 12:20 5,2 °C 5,6 °C 1,1 °C 84 % 991,4 hPa 0,0 l/m² 0 min 0 min 128 W/m² 19,3 km/h (3 Bft) 65,22 %
05.02.2026 12:22 5,2 °C 5,6 °C 1,7 °C 84 % 991,4 hPa 0,0 l/m² 0 min 0 min 130 W/m² 19,3 km/h (3 Bft) 85,71 %
05.02.2026 12:24 5,3 °C 5,6 °C 1,7 °C 85 % 991,5 hPa 0,0 l/m² 0 min 0 min 121 W/m² 19,3 km/h (3 Bft) 97,87 %
05.02.2026 12:25 5,3 °C 5,6 °C 1,7 °C 85 % 991,4 hPa 0,0 l/m² 0 min 0 min 120 W/m² 19,3 km/h (3 Bft) 91,23 %
05.02.2026 12:30 5,3 °C 5,6 °C 1,7 °C 85 % 991,4 hPa 0,0 l/m² 0 min 0 min 96 W/m² 16,1 km/h (3 Bft) 98,04 %
05.02.2026 12:32 5,4 °C 5,6 °C 1,7 °C 85 % 991,4 hPa 0,0 l/m² 0 min 0 min 95 W/m² 16,1 km/h (3 Bft) 95,74 %
05.02.2026 12:34 5,4 °C 5,6 °C 1,7 °C 85 % 991,3 hPa 0,0 l/m² 0 min 0 min 96 W/m² 16,1 km/h (3 Bft) 95,74 %
05.02.2026 12:36 5,4 °C 5,6 °C 1,7 °C 85 % 991,2 hPa 0,0 l/m² 0 min 0 min 97 W/m² 12,9 km/h (3 Bft) 97,87 %
05.02.2026 12:38 5,4 °C 5,6 °C 1,7 °C 85 % 991,2 hPa 0,0 l/m² 0 min 0 min 99 W/m² 12,9 km/h (3 Bft) 97,87 %
05.02.2026 12:40 5,5 °C 5,6 °C 1,7 °C 85 % 991,2 hPa 0,0 l/m² 0 min 0 min 101 W/m² 22,5 km/h (4 Bft) 99,12 %
05.02.2026 12:42 5,5 °C 5,6 °C 1,7 °C 85 % 991,2 hPa 0,0 l/m² 0 min 0 min 105 W/m² 16,1 km/h (3 Bft) 96,88 %
05.02.2026 12:44 5,5 °C 5,6 °C 1,7 °C 85 % 991,2 hPa 0,0 l/m² 0 min 0 min 105 W/m² 19,3 km/h (3 Bft) 97,67 %
05.02.2026 12:46 5,6 °C 5,6 °C 1,7 °C 85 % 991,1 hPa 0,0 l/m² 0 min 0 min 106 W/m² 16,1 km/h (3 Bft) 97,87 %
05.02.2026 12:48 5,6 °C 5,6 °C 1,7 °C 85 % 991,0 hPa 0,0 l/m² 0 min 0 min 115 W/m² 16,1 km/h (3 Bft) 100,00 %
05.02.2026 12:50 5,6 °C 5,6 °C 1,7 °C 85 % 991,1 hPa 0,0 l/m² 0 min 0 min 121 W/m² 16,1 km/h (3 Bft) 100,00 %
05.02.2026 12:52 5,6 °C 5,6 °C 1,7 °C 85 % 991,0 hPa 0,0 l/m² 0 min 0 min 122 W/m² 19,3 km/h (3 Bft) 97,87 %
05.02.2026 12:54 5,7 °C 5,6 °C 1,7 °C 85 % 991,1 hPa 0,0 l/m² 0 min 0 min 136 W/m² 16,1 km/h (3 Bft) 95,74 %
05.02.2026 12:55 5,7 °C 5,6 °C 1,7 °C 85 % 991,0 hPa 0,0 l/m² 0 min 0 min 136 W/m² 19,3 km/h (3 Bft) 100,00 %
05.02.2026 12:58 5,7 °C 6,1 °C 1,7 °C 85 % 991,0 hPa 0,0 l/m² 0 min 0 min 134 W/m² 19,3 km/h (3 Bft) 97,06 %
05.02.2026 13:00 5,7 °C 6,1 °C 1,7 °C 85 % 991,0 hPa 0,0 l/m² 0 min 0 min 140 W/m² 19,3 km/h (3 Bft) 98,00 %
05.02.2026 13:02 5,8 °C 6,1 °C 1,7 °C 85 % 991,0 hPa 0,0 l/m² 0 min 0 min 142 W/m² 22,5 km/h (4 Bft) 95,74 %
05.02.2026 13:06 5,8 °C 6,1 °C 2,2 °C 85 % 990,9 hPa 0,0 l/m² 0 min 0 min 127 W/m² 16,1 km/h (3 Bft) 100,00 %
05.02.2026 13:08 5,9 °C 6,1 °C 2,2 °C 85 % 990,9 hPa 0,0 l/m² 0 min 0 min 129 W/m² 19,3 km/h (3 Bft) 97,87 %
05.02.2026 13:10 5,9 °C 6,1 °C 2,2 °C 84 % 991,0 hPa 0,0 l/m² 0 min 0 min 138 W/m² 22,5 km/h (4 Bft) 95,74 %
05.02.2026 13:12 5,9 °C 6,1 °C 2,2 °C 85 % 991,0 hPa 0,0 l/m² 0 min 0 min 148 W/m² 22,5 km/h (4 Bft) 97,87 %
05.02.2026 13:14 5,9 °C 6,1 °C 2,2 °C 84 % 991,0 hPa 0,0 l/m² 0 min 0 min 148 W/m² 19,3 km/h (3 Bft) 97,87 %
05.02.2026 13:16 5,9 °C 6,1 °C 2,2 °C 84 % 991,0 hPa 0,0 l/m² 0 min 0 min 149 W/m² 22,5 km/h (4 Bft) 97,87 %
05.02.2026 13:18 6,0 °C 6,1 °C 2,2 °C 84 % 990,9 hPa 0,0 l/m² 0 min 0 min 149 W/m² 16,1 km/h (3 Bft) 95,65 %
05.02.2026 13:20 6,1 °C 6,1 °C 2,2 °C 84 % 991,0 hPa 0,0 l/m² 0 min 0 min 148 W/m² 16,1 km/h (3 Bft) 98,25 %
05.02.2026 13:24 6,1 °C 6,7 °C 2,2 °C 84 % 990,9 hPa 0,0 l/m² 0 min 0 min 153 W/m² 12,9 km/h (3 Bft) 96,43 %
05.02.2026 13:30 6,2 °C 7,2 °C 2,2 °C 84 % 990,8 hPa 0,0 l/m² 0 min 0 min 177 W/m² 16,1 km/h (3 Bft) 93,22 %
05.02.2026 13:32 6,3 °C 7,2 °C 2,2 °C 84 % 990,7 hPa 0,0 l/m² 0 min 0 min 190 W/m² 12,9 km/h (3 Bft) 95,74 %
05.02.2026 13:34 6,3 °C 7,2 °C 2,2 °C 84 % 990,7 hPa 0,0 l/m² 2 min 0 min 190 W/m² 16,1 km/h (3 Bft) 95,74 %
05.02.2026 13:36 6,3 °C 7,2 °C 2,2 °C 84 % 990,8 hPa 0,0 l/m² 2 min 0 min 192 W/m² 16,1 km/h (3 Bft) 95,74 %
05.02.2026 13:38 6,4 °C 7,2 °C 2,8 °C 84 % 990,7 hPa 0,0 l/m² 2 min 0 min 191 W/m² 16,1 km/h (3 Bft) 94,00 %
05.02.2026 13:40 6,4 °C 7,2 °C 2,8 °C 84 % 990,7 hPa 0,0 l/m² 0 min 0 min 188 W/m² 19,3 km/h (3 Bft) 98,25 %
05.02.2026 13:42 6,5 °C 7,2 °C 2,8 °C 83 % 990,7 hPa 0,0 l/m² 0 min 0 min 185 W/m² 16,1 km/h (3 Bft) 97,06 %
05.02.2026 13:44 6,5 °C 7,2 °C 2,8 °C 83 % 990,7 hPa 0,0 l/m² 2 min 0 min 197 W/m² 16,1 km/h (3 Bft) 97,67 %
05.02.2026 13:46 6,6 °C 7,2 °C 2,8 °C 83 % 990,8 hPa 0,0 l/m² 2 min 0 min 218 W/m² 19,3 km/h (3 Bft) 95,74 %
05.02.2026 13:48 6,6 °C 7,8 °C 2,8 °C 83 % 990,7 hPa 0,0 l/m² 2 min 0 min 240 W/m² 22,5 km/h (4 Bft) 97,83 %
05.02.2026 13:50 6,7 °C 8,3 °C 2,8 °C 83 % 990,7 hPa 0,0 l/m² 2 min 0 min 269 W/m² 16,1 km/h (3 Bft) 97,87 %
05.02.2026 13:52 6,7 °C 9,4 °C 2,8 °C 83 % 990,6 hPa 0,0 l/m² 2 min 0 min 299 W/m² 19,3 km/h (3 Bft) 97,87 %
05.02.2026 13:54 6,8 °C 9,4 °C 3,3 °C 83 % 990,6 hPa 0,0 l/m² 2 min 0 min 286 W/m² 19,3 km/h (3 Bft) 97,87 %
05.02.2026 13:56 6,9 °C 10,6 °C 3,3 °C 83 % 990,5 hPa 0,0 l/m² 2 min 0 min 359 W/m² 19,3 km/h (3 Bft) 95,74 %
05.02.2026 13:58 7,1 °C 9,4 °C 3,3 °C 83 % 990,5 hPa 0,0 l/m² 2 min 0 min 303 W/m² 25,7 km/h (4 Bft) 97,87 %
05.02.2026 14:00 7,1 °C 8,9 °C 3,3 °C 83 % 990,4 hPa 0,0 l/m² 0 min 0 min 158 W/m² 16,1 km/h (3 Bft) 97,83 %
05.02.2026 14:02 7,2 °C 8,3 °C 2,8 °C 83 % 990,5 hPa 0,0 l/m² 0 min 0 min 140 W/m² 19,3 km/h (3 Bft) 97,87 %
05.02.2026 14:04 7,2 °C 7,8 °C 2,8 °C 82 % 990,5 hPa 0,0 l/m² 0 min 0 min 129 W/m² 16,1 km/h (3 Bft) 97,92 %
05.02.2026 14:06 7,2 °C 7,8 °C 2,8 °C 82 % 990,5 hPa 0,0 l/m² 0 min 0 min 117 W/m² 19,3 km/h (3 Bft) 100,00 %
05.02.2026 14:08 7,2 °C 7,8 °C 2,8 °C 82 % 990,5 hPa 0,0 l/m² 0 min 0 min 116 W/m² 19,3 km/h (3 Bft) 95,74 %
05.02.2026 14:10 7,2 °C 7,8 °C 2,8 °C 82 % 990,4 hPa 0,0 l/m² 0 min 0 min 120 W/m² 16,1 km/h (3 Bft) 93,62 %
05.02.2026 14:12 7,2 °C 7,8 °C 2,8 °C 82 % 990,4 hPa 0,0 l/m² 0 min 0 min 127 W/m² 16,1 km/h (3 Bft) 97,83 %
05.02.2026 14:14 7,1 °C 7,2 °C 2,8 °C 82 % 990,3 hPa 0,0 l/m² 0 min 0 min 133 W/m² 19,3 km/h (3 Bft) 97,87 %
05.02.2026 14:16 7,1 °C 7,2 °C 2,8 °C 82 % 990,3 hPa 0,0 l/m² 0 min 0 min 131 W/m² 16,1 km/h (3 Bft) 97,87 %
05.02.2026 14:18 7,1 °C 7,2 °C 2,2 °C 82 % 990,3 hPa 0,0 l/m² 0 min 0 min 127 W/m² 12,9 km/h (3 Bft) 100,00 %
05.02.2026 14:20 7,1 °C 7,2 °C 2,2 °C 82 % 990,3 hPa 0,0 l/m² 0 min 0 min 128 W/m² 16,1 km/h (3 Bft) 100,00 %
05.02.2026 14:22 7,0 °C 7,2 °C 2,2 °C 82 % 990,3 hPa 0,0 l/m² 0 min 0 min 138 W/m² 16,1 km/h (3 Bft) 97,87 %
05.02.2026 14:24 7,0 °C 7,2 °C 2,8 °C 82 % 990,4 hPa 0,0 l/m² 0 min 0 min 152 W/m² 16,1 km/h (3 Bft) 97,92 %
05.02.2026 14:26 7,0 °C 7,8 °C 2,8 °C 82 % 990,5 hPa 0,0 l/m² 2 min 0 min 170 W/m² 12,9 km/h (3 Bft) 100,00 %
05.02.2026 14:28 7,0 °C 8,9 °C 2,8 °C 83 % 990,4 hPa 0,0 l/m² 2 min 0 min 230 W/m² 12,9 km/h (3 Bft) 100,00 %
05.02.2026 14:30 7,1 °C 8,9 °C 2,8 °C 83 % 990,4 hPa 0,0 l/m² 0 min 0 min 160 W/m² 16,1 km/h (3 Bft) 100,00 %
05.02.2026 14:32 7,1 °C 8,3 °C 2,8 °C 83 % 990,3 hPa 0,0 l/m² 0 min 0 min 155 W/m² 19,3 km/h (3 Bft) 97,83 %
05.02.2026 14:34 7,1 °C 8,9 °C 2,8 °C 83 % 990,3 hPa 0,0 l/m² 0 min 0 min 141 W/m² 16,1 km/h (3 Bft) 100,00 %
05.02.2026 14:36 7,1 °C 8,3 °C 2,8 °C 83 % 990,2 hPa 0,0 l/m² 0 min 0 min 130 W/m² 16,1 km/h (3 Bft) 100,00 %
05.02.2026 14:38 7,2 °C 9,4 °C 2,8 °C 83 % 990,2 hPa 0,0 l/m² 2 min 0 min 189 W/m² 16,1 km/h (3 Bft) 100,00 %
05.02.2026 14:40 7,2 °C 10,6 °C 2,8 °C 83 % 990,2 hPa 0,0 l/m² 2 min 0 min 290 W/m² 19,3 km/h (3 Bft) 100,00 %
05.02.2026 14:42 7,3 °C 11,7 °C 2,8 °C 83 % 990,2 hPa 0,0 l/m² 2 min 0 min 295 W/m² 22,5 km/h (4 Bft) 100,00 %
05.02.2026 14:44 7,4 °C 10,6 °C 2,8 °C 82 % 990,2 hPa 0,0 l/m² 2 min 0 min 253 W/m² 16,1 km/h (3 Bft) 100,00 %
05.02.2026 14:46 7,5 °C 10,6 °C 2,8 °C 82 % 990,3 hPa 0,0 l/m² 2 min 0 min 233 W/m² 19,3 km/h (3 Bft) 97,87 %
05.02.2026 14:48 7,6 °C 11,1 °C 2,8 °C 82 % 990,2 hPa 0,0 l/m² 2 min 0 min 288 W/m² 25,7 km/h (4 Bft) 97,87 %
05.02.2026 14:50 7,6 °C 12,2 °C 2,8 °C 82 % 990,2 hPa 0,0 l/m² 2 min 0 min 291 W/m² 22,5 km/h (4 Bft) 97,87 %
05.02.2026 14:52 7,7 °C 12,2 °C 2,8 °C 82 % 990,2 hPa 0,0 l/m² 2 min 0 min 288 W/m² 16,1 km/h (3 Bft) 95,74 %
05.02.2026 14:54 7,8 °C 12,2 °C 2,8 °C 82 % 990,2 hPa 0,0 l/m² 2 min 0 min 289 W/m² 12,9 km/h (3 Bft) 95,74 %
05.02.2026 14:56 7,9 °C 12,8 °C 3,3 °C 81 % 990,2 hPa 0,0 l/m² 2 min 0 min 288 W/m² 22,5 km/h (4 Bft) 97,83 %
05.02.2026 14:58 8,0 °C 12,8 °C 3,3 °C 81 % 990,2 hPa 0,0 l/m² 2 min 0 min 282 W/m² 16,1 km/h (3 Bft) 97,87 %
05.02.2026 15:00 8,1 °C 12,8 °C 3,3 °C 81 % 990,2 hPa 0,0 l/m² 2 min 0 min 266 W/m² 6,4 km/h (2 Bft) 97,87 %
05.02.2026 15:02 8,2 °C 12,8 °C 3,3 °C 81 % 990,2 hPa 0,0 l/m² 2 min 0 min 235 W/m² 19,3 km/h (3 Bft) 97,87 %
05.02.2026 15:04 8,3 °C 12,2 °C 3,3 °C 80 % 990,2 hPa 0,0 l/m² 2 min 0 min 253 W/m² 12,9 km/h (3 Bft) 97,56 %
05.02.2026 15:06 8,3 °C 12,2 °C 3,3 °C 80 % 990,3 hPa 0,0 l/m² 2 min 0 min 256 W/m² 19,3 km/h (3 Bft) 96,23 %
05.02.2026 15:08 8,4 °C 11,1 °C 3,3 °C 80 % 990,1 hPa 0,0 l/m² 2 min 0 min 189 W/m² 12,9 km/h (3 Bft) 95,83 %
05.02.2026 15:10 8,4 °C 10,6 °C 3,3 °C 80 % 990,2 hPa 0,0 l/m² 2 min 0 min 157 W/m² 19,3 km/h (3 Bft) 95,74 %
05.02.2026 15:12 8,4 °C 10,0 °C 3,3 °C 79 % 990,2 hPa 0,0 l/m² 0 min 0 min 134 W/m² 22,5 km/h (4 Bft) 97,87 %
05.02.2026 15:14 8,3 °C 9,4 °C 3,3 °C 79 % 990,2 hPa 0,0 l/m² 0 min 0 min 110 W/m² 16,1 km/h (3 Bft) 97,87 %
05.02.2026 15:16 8,3 °C 9,4 °C 2,8 °C 79 % 990,1 hPa 0,0 l/m² 2 min 0 min 147 W/m² 16,1 km/h (3 Bft) 97,87 %
05.02.2026 15:18 8,3 °C 8,9 °C 2,8 °C 80 % 990,1 hPa 0,0 l/m² 0 min 0 min 70 W/m² 19,3 km/h (3 Bft) 95,65 %
05.02.2026 15:20 8,3 °C 8,3 °C 2,8 °C 80 % 990,0 hPa 0,0 l/m² 0 min 0 min 55 W/m² 16,1 km/h (3 Bft) 93,62 %
05.02.2026 15:22 8,3 °C 7,8 °C 2,8 °C 80 % 990,0 hPa 0,0 l/m² 0 min 0 min 49 W/m² 12,9 km/h (3 Bft) 93,62 %
05.02.2026 15:24 8,2 °C 7,8 °C 2,8 °C 80 % 990,0 hPa 0,0 l/m² 0 min 0 min 46 W/m² 12,9 km/h (3 Bft) 97,87 %
05.02.2026 15:26 8,1 °C 7,2 °C 2,8 °C 80 % 990,0 hPa 0,0 l/m² 0 min 0 min 46 W/m² 19,3 km/h (3 Bft) 97,87 %
05.02.2026 15:28 8,1 °C 7,2 °C 2,8 °C 81 % 990,0 hPa 0,0 l/m² 0 min 0 min 44 W/m² 19,3 km/h (3 Bft) 95,74 %
05.02.2026 15:30 8,0 °C 7,2 °C 2,8 °C 81 % 990,0 hPa 0,0 l/m² 0 min 0 min 49 W/m² 12,9 km/h (3 Bft) 100,00 %
05.02.2026 15:32 7,9 °C 7,2 °C 2,8 °C 81 % 990,0 hPa 0,0 l/m² 0 min 0 min 61 W/m² 9,7 km/h (2 Bft) 97,87 %
05.02.2026 15:34 7,9 °C 7,2 °C 2,8 °C 81 % 990,0 hPa 0,0 l/m² 0 min 0 min 74 W/m² 16,1 km/h (3 Bft) 93,62 %
05.02.2026 15:36 7,9 °C 7,2 °C 2,8 °C 81 % 989,9 hPa 0,0 l/m² 0 min 0 min 86 W/m² 12,9 km/h (3 Bft) 97,87 %
05.02.2026 15:38 7,8 °C 7,8 °C 3,3 °C 82 % 989,9 hPa 0,0 l/m² 0 min 0 min 90 W/m² 12,9 km/h (3 Bft) 95,74 %
05.02.2026 15:40 7,8 °C 7,8 °C 3,3 °C 82 % 989,9 hPa 0,0 l/m² 0 min 0 min 87 W/m² 9,7 km/h (2 Bft) 97,87 %
05.02.2026 15:42 7,8 °C 7,8 °C 3,3 °C 82 % 990,0 hPa 0,0 l/m² 0 min 0 min 77 W/m² 6,4 km/h (2 Bft) 97,83 %
05.02.2026 15:44 7,8 °C 7,2 °C 3,3 °C 82 % 990,0 hPa 0,0 l/m² 0 min 0 min 63 W/m² 12,9 km/h (3 Bft) 95,74 %
05.02.2026 15:46 7,8 °C 7,2 °C 3,3 °C 82 % 990,0 hPa 0,0 l/m² 0 min 0 min 53 W/m² 12,9 km/h (3 Bft) 95,74 %
05.02.2026 15:48 7,8 °C 7,2 °C 3,3 °C 83 % 990,0 hPa 0,0 l/m² 0 min 0 min 47 W/m² 12,9 km/h (3 Bft) 97,87 %
05.02.2026 15:50 7,8 °C 7,2 °C 3,3 °C 83 % 989,9 hPa 0,0 l/m² 0 min 0 min 46 W/m² 16,1 km/h (3 Bft) 95,74 %
05.02.2026 15:52 7,8 °C 7,2 °C 3,3 °C 83 % 989,9 hPa 0,0 l/m² 0 min 0 min 47 W/m² 19,3 km/h (3 Bft) 95,74 %
05.02.2026 15:54 7,7 °C 7,2 °C 3,3 °C 83 % 989,9 hPa 0,0 l/m² 0 min 0 min 49 W/m² 19,3 km/h (3 Bft) 97,83 %
05.02.2026 15:56 7,7 °C 7,2 °C 3,3 °C 83 % 989,9 hPa 0,0 l/m² 0 min 0 min 48 W/m² 16,1 km/h (3 Bft) 95,74 %
05.02.2026 15:58 7,7 °C 7,2 °C 3,3 °C 83 % 989,9 hPa 0,0 l/m² 0 min 0 min 45 W/m² 12,9 km/h (3 Bft) 97,87 %
05.02.2026 16:00 7,7 °C 7,2 °C 3,3 °C 83 % 989,9 hPa 0,0 l/m² 0 min 0 min 42 W/m² 16,1 km/h (3 Bft) 95,74 %
05.02.2026 16:02 7,7 °C 7,2 °C 2,8 °C 83 % 989,9 hPa 0,0 l/m² 0 min 0 min 38 W/m² 16,1 km/h (3 Bft) 97,87 %
05.02.2026 16:04 7,7 °C 7,2 °C 2,8 °C 83 % 990,0 hPa 0,0 l/m² 0 min 0 min 28 W/m² 12,9 km/h (3 Bft) 97,87 %
05.02.2026 16:06 7,7 °C 7,2 °C 2,8 °C 83 % 989,9 hPa 0,0 l/m² 0 min 0 min 23 W/m² 6,4 km/h (2 Bft) 95,65 %
05.02.2026 16:08 7,7 °C 7,2 °C 2,8 °C 83 % 989,9 hPa 0,0 l/m² 0 min 0 min 19 W/m² 16,1 km/h (3 Bft) 97,92 %
05.02.2026 16:10 7,7 °C 7,2 °C 2,8 °C 83 % 989,8 hPa 0,0 l/m² 0 min 0 min 18 W/m² 16,1 km/h (3 Bft) 100,00 %
05.02.2026 16:12 7,7 °C 6,7 °C 2,8 °C 83 % 989,9 hPa 0,0 l/m² 0 min 0 min 18 W/m² 12,9 km/h (3 Bft) 100,00 %
05.02.2026 16:14 7,6 °C 6,7 °C 2,8 °C 84 % 989,8 hPa 0,0 l/m² 0 min 0 min 17 W/m² 12,9 km/h (3 Bft) 100,00 %
05.02.2026 16:16 7,6 °C 6,7 °C 2,8 °C 84 % 989,8 hPa 0,0 l/m² 0 min 0 min 18 W/m² 9,7 km/h (2 Bft) 95,65 %
05.02.2026 16:18 7,6 °C 6,7 °C 2,8 °C 84 % 989,8 hPa 0,0 l/m² 0 min 0 min 19 W/m² 19,3 km/h (3 Bft) 95,74 %
05.02.2026 16:20 7,6 °C 6,7 °C 2,8 °C 84 % 989,8 hPa 0,0 l/m² 0 min 0 min 21 W/m² 16,1 km/h (3 Bft) 97,87 %
05.02.2026 16:22 7,6 °C 6,7 °C 2,8 °C 84 % 989,8 hPa 0,0 l/m² 0 min 0 min 24 W/m² 19,3 km/h (3 Bft) 95,74 %
05.02.2026 16:24 7,5 °C 6,7 °C 2,8 °C 84 % 989,8 hPa 0,0 l/m² 0 min 0 min 25 W/m² 16,1 km/h (3 Bft) 97,87 %
05.02.2026 16:26 7,5 °C 6,7 °C 2,8 °C 84 % 989,9 hPa 0,0 l/m² 0 min 0 min 24 W/m² 12,9 km/h (3 Bft) 97,87 %
05.02.2026 16:28 7,4 °C 6,7 °C 2,8 °C 84 % 989,9 hPa 0,0 l/m² 0 min 0 min 22 W/m² 12,9 km/h (3 Bft) 91,30 %
05.02.2026 16:30 7,4 °C 6,7 °C 2,8 °C 84 % 989,9 hPa 0,0 l/m² 0 min 0 min 20 W/m² 22,5 km/h (4 Bft) 97,87 %
05.02.2026 16:32 7,4 °C 6,7 °C 2,8 °C 84 % 989,9 hPa 0,0 l/m² 0 min 0 min 18 W/m² 19,3 km/h (3 Bft) 95,74 %
05.02.2026 16:34 7,4 °C 6,7 °C 2,8 °C 84 % 989,8 hPa 0,0 l/m² 0 min 0 min 17 W/m² 19,3 km/h (3 Bft) 97,87 %
05.02.2026 16:36 7,3 °C 6,7 °C 2,8 °C 84 % 989,8 hPa 0,0 l/m² 0 min 0 min 15 W/m² 12,9 km/h (3 Bft) 97,87 %
05.02.2026 16:38 7,3 °C 6,7 °C 2,8 °C 84 % 989,8 hPa 0,0 l/m² 0 min 0 min 14 W/m² 19,3 km/h (3 Bft) 97,87 %
05.02.2026 16:40 7,3 °C 6,7 °C 2,8 °C 84 % 989,7 hPa 0,0 l/m² 0 min 0 min 14 W/m² 16,1 km/h (3 Bft) 97,87 %
05.02.2026 16:42 7,3 °C 6,7 °C 2,8 °C 84 % 989,7 hPa 0,0 l/m² 0 min 0 min 14 W/m² 9,7 km/h (2 Bft) 97,83 %
05.02.2026 16:44 7,3 °C 6,7 °C 2,8 °C 85 % 989,7 hPa 0,0 l/m² 0 min 0 min 14 W/m² 12,9 km/h (3 Bft) 95,74 %
05.02.2026 16:46 7,3 °C 6,7 °C 2,8 °C 85 % 989,7 hPa 0,0 l/m² 0 min 0 min 12 W/m² 12,9 km/h (3 Bft) 95,74 %
05.02.2026 16:48 7,2 °C 6,7 °C 2,8 °C 85 % 989,8 hPa 0,0 l/m² 0 min 0 min 12 W/m² 16,1 km/h (3 Bft) 57,45 %
05.02.2026 16:50 7,2 °C 6,7 °C 2,8 °C 85 % 989,7 hPa 0,0 l/m² 0 min 0 min 12 W/m² 12,9 km/h (3 Bft) 97,87 %
05.02.2026 16:52 7,2 °C 6,7 °C 2,8 °C 85 % 989,8 hPa 0,0 l/m² 0 min 0 min 12 W/m² 16,1 km/h (3 Bft) 95,65 %
05.02.2026 16:54 7,2 °C 6,7 °C 2,2 °C 85 % 989,8 hPa 0,0 l/m² 0 min 0 min 12 W/m² 16,1 km/h (3 Bft) 97,87 %
05.02.2026 16:56 7,2 °C 6,1 °C 2,2 °C 85 % 989,8 hPa 0,0 l/m² 0 min 0 min 12 W/m² 12,9 km/h (3 Bft) 97,87 %
05.02.2026 16:58 7,1 °C 6,1 °C 2,2 °C 85 % 989,8 hPa 0,0 l/m² 0 min 0 min 12 W/m² 16,1 km/h (3 Bft) 97,87 %
05.02.2026 17:00 7,1 °C 6,1 °C 2,2 °C 85 % 989,9 hPa 0,0 l/m² 0 min 0 min 15 W/m² 12,9 km/h (3 Bft) 100,00 %
05.02.2026 17:02 7,1 °C 6,1 °C 2,2 °C 85 % 989,9 hPa 0,0 l/m² 0 min 0 min 17 W/m² 16,1 km/h (3 Bft) 97,87 %
05.02.2026 17:04 7,1 °C 6,1 °C 2,2 °C 85 % 990,0 hPa 0,0 l/m² 0 min 0 min 21 W/m² 12,9 km/h (3 Bft) 100,00 %
05.02.2026 17:06 7,1 °C 6,1 °C 2,2 °C 85 % 990,0 hPa 0,0 l/m² 2 min 0 min 25 W/m² 22,5 km/h (4 Bft) 100,00 %
05.02.2026 17:08 7,0 °C 6,1 °C 2,2 °C 85 % 989,9 hPa 0,0 l/m² 2 min 0 min 25 W/m² 16,1 km/h (3 Bft) 100,00 %
05.02.2026 17:10 7,0 °C 6,1 °C 2,2 °C 85 % 990,0 hPa 0,0 l/m² 2 min 0 min 25 W/m² 19,3 km/h (3 Bft) 100,00 %
05.02.2026 17:12 7,0 °C 6,1 °C 2,2 °C 85 % 989,9 hPa 0,0 l/m² 2 min 0 min 25 W/m² 22,5 km/h (4 Bft) 97,87 %
05.02.2026 17:14 7,0 °C 6,1 °C 2,2 °C 85 % 989,9 hPa 0,0 l/m² 2 min 0 min 23 W/m² 19,3 km/h (3 Bft) 100,00 %
05.02.2026 17:16 7,0 °C 6,1 °C 2,2 °C 85 % 989,9 hPa 0,0 l/m² 2 min 0 min 21 W/m² 22,5 km/h (4 Bft) 97,87 %
05.02.2026 17:18 6,9 °C 6,1 °C 2,2 °C 85 % 989,9 hPa 0,0 l/m² 0 min 0 min 19 W/m² 25,7 km/h (4 Bft) 100,00 %
05.02.2026 17:20 6,9 °C 6,1 °C 2,2 °C 85 % 989,9 hPa 0,0 l/m² 0 min 0 min 17 W/m² 19,3 km/h (3 Bft) 100,00 %
05.02.2026 17:22 6,9 °C 6,1 °C 2,2 °C 85 % 989,9 hPa 0,0 l/m² 0 min 0 min 16 W/m² 19,3 km/h (3 Bft) 97,87 %
05.02.2026 17:24 6,8 °C 6,1 °C 2,2 °C 86 % 989,9 hPa 0,0 l/m² 0 min 0 min 13 W/m² 19,3 km/h (3 Bft) 100,00 %
05.02.2026 17:26 6,8 °C 6,1 °C 2,2 °C 86 % 989,9 hPa 0,0 l/m² 0 min 0 min 12 W/m² 22,5 km/h (4 Bft) 100,00 %
05.02.2026 17:28 6,8 °C 6,1 °C 2,2 °C 86 % 989,9 hPa 0,0 l/m² 0 min 0 min 10 W/m² 19,3 km/h (3 Bft) 100,00 %
05.02.2026 17:30 6,8 °C 6,1 °C 2,2 °C 86 % 990,0 hPa 0,0 l/m² 0 min 0 min 7 W/m² 19,3 km/h (3 Bft) 100,00 %
05.02.2026 17:32 6,8 °C 6,1 °C 2,2 °C 86 % 990,0 hPa 0,0 l/m² 0 min 0 min 2 W/m² 22,5 km/h (4 Bft) 97,87 %
05.02.2026 17:34 6,8 °C 6,1 °C 2,2 °C 86 % 990,0 hPa 0,0 l/m² 0 min 0 min 0 W/m² 16,1 km/h (3 Bft) 95,74 %
05.02.2026 17:36 6,7 °C 6,1 °C 2,2 °C 86 % 990,1 hPa 0,0 l/m² 0 min 0 min 0 W/m² 19,3 km/h (3 Bft) 95,74 %
05.02.2026 17:38 6,7 °C 6,1 °C 2,2 °C 86 % 990,1 hPa 0,0 l/m² 0 min 0 min 0 W/m² 22,5 km/h (4 Bft) 95,65 %
05.02.2026 17:40 6,7 °C 6,1 °C 2,2 °C 86 % 990,1 hPa 0,0 l/m² 0 min 0 min 0 W/m² 19,3 km/h (3 Bft) 95,74 %
05.02.2026 17:42 6,7 °C 5,6 °C 2,2 °C 86 % 990,1 hPa 0,0 l/m² 0 min 0 min 0 W/m² 25,7 km/h (4 Bft) 93,62 %
05.02.2026 17:44 6,6 °C 5,6 °C 2,2 °C 86 % 990,2 hPa 0,0 l/m² 0 min 0 min 0 W/m² 22,5 km/h (4 Bft) 95,74 %
05.02.2026 17:46 6,6 °C 5,6 °C 2,2 °C 86 % 990,1 hPa 0,0 l/m² 0 min 0 min 0 W/m² 12,9 km/h (3 Bft) 93,62 %
05.02.2026 17:48 6,6 °C 5,6 °C 2,2 °C 86 % 990,1 hPa 0,0 l/m² 0 min 0 min 0 W/m² 16,1 km/h (3 Bft) 93,62 %
05.02.2026 17:50 6,5 °C 5,6 °C 1,7 °C 86 % 990,1 hPa 0,0 l/m² 0 min 0 min 0 W/m² 19,3 km/h (3 Bft) 93,48 %
05.02.2026 17:52 6,5 °C 5,6 °C 1,7 °C 86 % 990,1 hPa 0,0 l/m² 0 min 0 min 0 W/m² 16,1 km/h (3 Bft) 95,74 %
05.02.2026 17:54 6,5 °C 5,6 °C 1,7 °C 86 % 990,2 hPa 0,0 l/m² 0 min 0 min 0 W/m² 12,9 km/h (3 Bft) 95,74 %
05.02.2026 17:56 6,5 °C 5,6 °C 1,7 °C 86 % 990,1 hPa 0,0 l/m² 0 min 0 min 0 W/m² 12,9 km/h (3 Bft) 93,62 %
05.02.2026 17:58 6,4 °C 5,6 °C 1,7 °C 87 % 990,1 hPa 0,0 l/m² 0 min 0 min 0 W/m² 12,9 km/h (3 Bft) 95,74 %
05.02.2026 18:00 6,4 °C 5,6 °C 1,7 °C 87 % 990,1 hPa 0,0 l/m² 0 min 0 min 0 W/m² 9,7 km/h (2 Bft) 95,74 %
05.02.2026 18:02 6,4 °C 5,6 °C 1,7 °C 87 % 990,1 hPa 0,0 l/m² 0 min 0 min 0 W/m² 16,1 km/h (3 Bft) 97,83 %
05.02.2026 18:04 6,4 °C 5,6 °C 1,7 °C 87 % 990,1 hPa 0,0 l/m² 0 min 0 min 0 W/m² 16,1 km/h (3 Bft) 95,74 %
05.02.2026 18:08 6,3 °C 5,6 °C 1,7 °C 87 % 990,1 hPa 0,0 l/m² 0 min 0 min 0 W/m² 16,1 km/h (3 Bft) 97,65 %
05.02.2026 18:10 6,3 °C 5,0 °C 1,7 °C 87 % 990,0 hPa 0,0 l/m² 0 min 0 min 0 W/m² 16,1 km/h (3 Bft) 97,87 %
05.02.2026 18:12 6,3 °C 5,0 °C 1,7 °C 87 % 990,0 hPa 0,0 l/m² 0 min 0 min 0 W/m² 12,9 km/h (3 Bft) 97,87 %
05.02.2026 18:14 6,2 °C 5,0 °C 1,7 °C 87 % 990,0 hPa 0,0 l/m² 0 min 0 min 0 W/m² 16,1 km/h (3 Bft) 95,74 %
05.02.2026 18:16 6,2 °C 5,0 °C 1,7 °C 87 % 990,0 hPa 0,0 l/m² 0 min 0 min 0 W/m² 19,3 km/h (3 Bft) 97,87 %
05.02.2026 18:18 6,2 °C 5,0 °C 1,7 °C 88 % 990,0 hPa 0,0 l/m² 0 min 0 min 0 W/m² 6,4 km/h (2 Bft) 97,83 %
05.02.2026 18:20 6,1 °C 5,0 °C 1,1 °C 88 % 990,0 hPa 0,0 l/m² 0 min 0 min 0 W/m² 6,4 km/h (2 Bft) 97,87 %
05.02.2026 18:22 6,1 °C 5,0 °C 1,1 °C 88 % 990,0 hPa 0,0 l/m² 0 min 0 min 0 W/m² 6,4 km/h (2 Bft) 97,87 %
05.02.2026 18:24 6,1 °C 5,0 °C 1,1 °C 88 % 990,0 hPa 0,0 l/m² 0 min 0 min 0 W/m² 12,9 km/h (3 Bft) 93,62 %
05.02.2026 18:26 6,0 °C 5,0 °C 1,1 °C 88 % 990,0 hPa 0,0 l/m² 0 min 0 min 0 W/m² 9,7 km/h (2 Bft) 97,87 %
05.02.2026 18:28 6,0 °C 5,0 °C 1,1 °C 88 % 990,0 hPa 0,0 l/m² 0 min 0 min 0 W/m² 6,4 km/h (2 Bft) 100,00 %
05.02.2026 18:30 5,9 °C 5,0 °C 1,1 °C 88 % 990,0 hPa 0,0 l/m² 0 min 0 min 0 W/m² 19,3 km/h (3 Bft) 100,00 %
05.02.2026 18:32 5,9 °C 5,0 °C 1,1 °C 88 % 990,0 hPa 0,0 l/m² 0 min 0 min 0 W/m² 19,3 km/h (3 Bft) 100,00 %
05.02.2026 18:34 5,9 °C 5,0 °C 1,1 °C 88 % 989,9 hPa 0,0 l/m² 0 min 0 min 0 W/m² 16,1 km/h (3 Bft) 95,74 %
05.02.2026 18:36 5,8 °C 5,0 °C 1,1 °C 88 % 990,0 hPa 0,0 l/m² 0 min 0 min 0 W/m² 6,4 km/h (2 Bft) 100,00 %
05.02.2026 18:38 5,8 °C 5,0 °C 1,1 °C 88 % 989,9 hPa 0,0 l/m² 0 min 0 min 0 W/m² 12,9 km/h (3 Bft) 100,00 %
05.02.2026 18:40 5,8 °C 4,4 °C 1,1 °C 89 % 990,0 hPa 0,0 l/m² 0 min 0 min 0 W/m² 12,9 km/h (3 Bft) 100,00 %
05.02.2026 18:42 5,7 °C 4,4 °C 1,1 °C 89 % 990,0 hPa 0,0 l/m² 0 min 0 min 0 W/m² 16,1 km/h (3 Bft) 95,74 %
05.02.2026 18:44 5,7 °C 4,4 °C 1,1 °C 89 % 990,0 hPa 0,0 l/m² 0 min 0 min 0 W/m² 16,1 km/h (3 Bft) 97,87 %
05.02.2026 18:46 5,7 °C 4,4 °C 1,1 °C 89 % 990,0 hPa 0,0 l/m² 0 min 0 min 0 W/m² 6,4 km/h (2 Bft) 97,87 %
05.02.2026 18:48 5,7 °C 4,4 °C 1,1 °C 89 % 990,0 hPa 0,0 l/m² 0 min 0 min 0 W/m² 12,9 km/h (3 Bft) 97,87 %
05.02.2026 18:50 5,6 °C 4,4 °C 1,1 °C 89 % 990,0 hPa 0,0 l/m² 0 min 0 min 0 W/m² 16,1 km/h (3 Bft) 97,87 %
05.02.2026 18:52 5,6 °C 5,0 °C 1,1 °C 89 % 989,9 hPa 0,0 l/m² 0 min 0 min 0 W/m² 12,9 km/h (3 Bft) 97,83 %
05.02.2026 18:54 5,6 °C 5,0 °C 1,1 °C 89 % 989,9 hPa 0,0 l/m² 0 min 0 min 0 W/m² 12,9 km/h (3 Bft) 97,87 %
05.02.2026 18:56 5,6 °C 5,0 °C 1,1 °C 89 % 989,9 hPa 0,0 l/m² 0 min 0 min 0 W/m² 19,3 km/h (3 Bft) 97,87 %
05.02.2026 18:58 5,6 °C 4,4 °C 1,1 °C 90 % 989,9 hPa 0,0 l/m² 0 min 0 min 0 W/m² 16,1 km/h (3 Bft) 97,87 %
05.02.2026 19:00 5,6 °C 4,4 °C 0,6 °C 90 % 989,9 hPa 0,0 l/m² 0 min 2 min 0 W/m² 22,5 km/h (4 Bft) 97,87 %
05.02.2026 19:02 5,5 °C 4,4 °C 0,6 °C 90 % 989,8 hPa 0,0 l/m² 0 min 2 min 0 W/m² 22,5 km/h (4 Bft) 97,83 %
05.02.2026 19:04 5,5 °C 4,4 °C 0,6 °C 90 % 989,8 hPa 0,0 l/m² 0 min 0 min 0 W/m² 19,3 km/h (3 Bft) 97,87 %
05.02.2026 19:06 5,5 °C 4,4 °C 0,6 °C 90 % 989,7 hPa 0,0 l/m² 0 min 0 min 0 W/m² 16,1 km/h (3 Bft) 96,61 %
05.02.2026 19:08 5,5 °C 4,4 °C 0,6 °C 90 % 989,7 hPa 0,0 l/m² 0 min 0 min 0 W/m² 16,1 km/h (3 Bft) 95,83 %
05.02.2026 19:10 5,4 °C 4,4 °C 0,6 °C 91 % 989,7 hPa 0,0 l/m² 0 min 0 min 0 W/m² 16,1 km/h (3 Bft) 100,00 %
05.02.2026 19:12 5,4 °C 4,4 °C 0,6 °C 91 % 989,7 hPa 0,0 l/m² 0 min 0 min 0 W/m² 16,1 km/h (3 Bft) 95,74 %
05.02.2026 19:14 5,4 °C 4,4 °C 0,6 °C 91 % 989,7 hPa 0,0 l/m² 0 min 0 min 0 W/m² 16,1 km/h (3 Bft) 97,83 %
05.02.2026 19:16 5,4 °C 4,4 °C 0,6 °C 91 % 989,7 hPa 0,0 l/m² 0 min 0 min 0 W/m² 12,9 km/h (3 Bft) 95,83 %
05.02.2026 19:18 5,4 °C 4,4 °C 0,6 °C 91 % 989,7 hPa 0,0 l/m² 0 min 0 min 0 W/m² 22,5 km/h (4 Bft) 97,87 %
05.02.2026 19:20 5,3 °C 4,4 °C 0,6 °C 91 % 989,6 hPa 0,0 l/m² 0 min 0 min 0 W/m² 16,1 km/h (3 Bft) 97,87 %
05.02.2026 19:22 5,3 °C 4,4 °C 0,6 °C 91 % 989,7 hPa 0,0 l/m² 0 min 0 min 0 W/m² 16,1 km/h (3 Bft) 87,23 %
05.02.2026 19:24 5,3 °C 4,4 °C 0,6 °C 91 % 989,7 hPa 0,0 l/m² 0 min 0 min 0 W/m² 16,1 km/h (3 Bft) 95,74 %
05.02.2026 19:26 5,3 °C 4,4 °C 0,6 °C 91 % 989,7 hPa 0,0 l/m² 0 min 0 min 0 W/m² 16,1 km/h (3 Bft) 97,83 %
05.02.2026 19:28 5,3 °C 4,4 °C 0,6 °C 92 % 989,7 hPa 0,0 l/m² 0 min 0 min 0 W/m² 16,1 km/h (3 Bft) 97,87 %
05.02.2026 19:30 5,2 °C 4,4 °C 0,6 °C 92 % 989,7 hPa 0,0 l/m² 0 min 0 min 0 W/m² 19,3 km/h (3 Bft) 97,87 %
05.02.2026 19:32 5,2 °C 4,4 °C 0,6 °C 92 % 989,6 hPa 0,0 l/m² 0 min 0 min 0 W/m² 16,1 km/h (3 Bft) 97,87 %
05.02.2026 19:34 5,2 °C 4,4 °C 0,6 °C 92 % 989,7 hPa 0,0 l/m² 0 min 0 min 0 W/m² 25,7 km/h (4 Bft) 97,87 %
05.02.2026 19:36 5,2 °C 4,4 °C 0,6 °C 92 % 989,6 hPa 0,0 l/m² 0 min 0 min 0 W/m² 19,3 km/h (3 Bft) 97,87 %
05.02.2026 19:38 5,2 °C 4,4 °C 0,6 °C 92 % 989,6 hPa 0,0 l/m² 0 min 0 min 0 W/m² 25,7 km/h (4 Bft) 93,48 %
05.02.2026 19:40 5,1 °C 4,4 °C 0,6 °C 92 % 989,6 hPa 0,0 l/m² 0 min 0 min 0 W/m² 16,1 km/h (3 Bft) 95,74 %
05.02.2026 19:42 5,1 °C 4,4 °C 0,6 °C 92 % 989,6 hPa 0,0 l/m² 0 min 0 min 0 W/m² 12,9 km/h (3 Bft) 97,87 %
05.02.2026 19:44 5,1 °C 4,4 °C 0,6 °C 92 % 989,5 hPa 0,0 l/m² 0 min 0 min 0 W/m² 16,1 km/h (3 Bft) 95,74 %
05.02.2026 19:46 5,1 °C 4,4 °C 0,6 °C 92 % 989,4 hPa 0,0 l/m² 0 min 0 min 0 W/m² 16,1 km/h (3 Bft) 97,87 %
05.02.2026 19:48 5,1 °C 4,4 °C 0,6 °C 92 % 989,4 hPa 0,0 l/m² 0 min 0 min 0 W/m² 19,3 km/h (3 Bft) 97,87 %
05.02.2026 19:50 5,0 °C 4,4 °C 0,6 °C 93 % 989,4 hPa 0,0 l/m² 0 min 0 min 0 W/m² 16,1 km/h (3 Bft) 93,48 %
05.02.2026 19:52 5,0 °C 4,4 °C 0,6 °C 93 % 989,4 hPa 0,0 l/m² 0 min 0 min 0 W/m² 22,5 km/h (4 Bft) 97,87 %
05.02.2026 19:54 5,0 °C 4,4 °C 0,6 °C 93 % 989,4 hPa 0,0 l/m² 0 min 0 min 0 W/m² 19,3 km/h (3 Bft) 100,00 %
05.02.2026 19:56 4,9 °C 4,4 °C 0,6 °C 93 % 989,4 hPa 0,0 l/m² 0 min 0 min 0 W/m² 19,3 km/h (3 Bft) 97,87 %
05.02.2026 19:58 4,9 °C 4,4 °C 0,6 °C 93 % 989,3 hPa 0,0 l/m² 0 min 0 min 0 W/m² 9,7 km/h (2 Bft) 100,00 %
05.02.2026 20:00 4,9 °C 4,4 °C 0,6 °C 93 % 989,3 hPa 0,0 l/m² 0 min 0 min 0 W/m² 12,9 km/h (3 Bft) 100,00 %
05.02.2026 20:02 4,9 °C 4,4 °C 0,6 °C 93 % 989,4 hPa 0,0 l/m² 0 min 0 min 0 W/m² 12,9 km/h (3 Bft) 97,87 %
05.02.2026 20:04 4,9 °C 4,4 °C 0,6 °C 93 % 989,4 hPa 0,0 l/m² 0 min 0 min 0 W/m² 12,9 km/h (3 Bft) 97,87 %
05.02.2026 20:06 4,9 °C 4,4 °C 0,6 °C 93 % 989,4 hPa 0,0 l/m² 0 min 0 min 0 W/m² 16,1 km/h (3 Bft) 97,87 %
05.02.2026 20:08 4,9 °C 4,4 °C 0,6 °C 93 % 989,3 hPa 0,0 l/m² 0 min 0 min 0 W/m² 12,9 km/h (3 Bft) 100,00 %
05.02.2026 20:10 4,9 °C 4,4 °C 0,6 °C 93 % 989,3 hPa 0,0 l/m² 0 min 0 min 0 W/m² 9,7 km/h (2 Bft) 100,00 %
05.02.2026 20:12 4,9 °C 4,4 °C 0,6 °C 93 % 989,3 hPa 0,0 l/m² 0 min 0 min 0 W/m² 12,9 km/h (3 Bft) 95,65 %
05.02.2026 20:14 4,9 °C 4,4 °C 0,6 °C 93 % 989,2 hPa 0,0 l/m² 0 min 0 min 0 W/m² 19,3 km/h (3 Bft) 100,00 %
05.02.2026 20:16 4,9 °C 4,4 °C 0,6 °C 93 % 989,3 hPa 0,0 l/m² 0 min 0 min 0 W/m² 6,4 km/h (2 Bft) 53,49 %
05.02.2026 20:18 4,8 °C 4,4 °C 0,6 °C 93 % 989,2 hPa 0,0 l/m² 0 min 0 min 0 W/m² 12,9 km/h (3 Bft) 100,00 %
05.02.2026 20:20 4,8 °C 3,9 °C 0,0 °C 93 % 989,2 hPa 0,0 l/m² 0 min 0 min 0 W/m² 12,9 km/h (3 Bft) 97,87 %
05.02.2026 20:22 4,8 °C 3,9 °C 0,0 °C 93 % 989,3 hPa 0,0 l/m² 0 min 0 min 0 W/m² 16,1 km/h (3 Bft) 100,00 %
05.02.2026 20:24 4,8 °C 3,9 °C 0,6 °C 93 % 989,2 hPa 0,0 l/m² 0 min 0 min 0 W/m² 16,1 km/h (3 Bft) 100,00 %
05.02.2026 20:26 4,8 °C 3,9 °C 0,6 °C 94 % 989,2 hPa 0,0 l/m² 0 min 0 min 0 W/m² 19,3 km/h (3 Bft) 97,87 %
05.02.2026 20:28 4,8 °C 3,9 °C 0,6 °C 94 % 989,2 hPa 0,0 l/m² 0 min 0 min 0 W/m² 19,3 km/h (3 Bft) 100,00 %
05.02.2026 20:30 4,7 °C 3,9 °C 0,6 °C 93 % 989,1 hPa 0,0 l/m² 0 min 0 min 0 W/m² 19,3 km/h (3 Bft) 100,00 %
05.02.2026 20:32 4,7 °C 3,9 °C 0,6 °C 93 % 989,1 hPa 0,0 l/m² 0 min 0 min 0 W/m² 19,3 km/h (3 Bft) 100,00 %
05.02.2026 20:34 4,7 °C 3,9 °C 0,6 °C 93 % 989,1 hPa 0,0 l/m² 0 min 0 min 0 W/m² 12,9 km/h (3 Bft) 97,87 %
05.02.2026 20:36 4,7 °C 3,9 °C 0,6 °C 93 % 989,1 hPa 0,0 l/m² 0 min 0 min 0 W/m² 16,1 km/h (3 Bft) 100,00 %
05.02.2026 20:38 4,7 °C 3,9 °C 0,6 °C 93 % 989,1 hPa 0,0 l/m² 0 min 0 min 0 W/m² 19,3 km/h (3 Bft) 100,00 %
05.02.2026 20:40 4,6 °C 3,9 °C 0,6 °C 93 % 989,1 hPa 0,0 l/m² 0 min 0 min 0 W/m² 19,3 km/h (3 Bft) 100,00 %
05.02.2026 20:42 4,6 °C 3,9 °C 0,6 °C 93 % 989,0 hPa 0,0 l/m² 0 min 0 min 0 W/m² 19,3 km/h (3 Bft) 97,87 %
05.02.2026 20:44 4,6 °C 3,9 °C 0,6 °C 93 % 989,0 hPa 0,0 l/m² 0 min 0 min 0 W/m² 16,1 km/h (3 Bft) 97,87 %
05.02.2026 20:46 4,6 °C 3,9 °C 0,6 °C 93 % 989,0 hPa 0,0 l/m² 0 min 0 min 0 W/m² 22,5 km/h (4 Bft) 97,87 %
05.02.2026 20:48 4,6 °C 3,9 °C 0,6 °C 93 % 989,1 hPa 0,0 l/m² 0 min 0 min 0 W/m² 22,5 km/h (4 Bft) 95,65 %
05.02.2026 20:50 4,6 °C 3,9 °C 0,6 °C 93 % 989,1 hPa 0,0 l/m² 0 min 0 min 0 W/m² 19,3 km/h (3 Bft) 97,87 %
05.02.2026 20:52 4,6 °C 3,9 °C 0,6 °C 93 % 989,1 hPa 0,0 l/m² 0 min 0 min 0 W/m² 16,1 km/h (3 Bft) 95,74 %
05.02.2026 20:54 4,6 °C 3,9 °C 0,6 °C 93 % 989,0 hPa 0,0 l/m² 0 min 0 min 0 W/m² 16,1 km/h (3 Bft) 97,87 %
05.02.2026 20:56 4,6 °C 3,9 °C 0,6 °C 93 % 989,0 hPa 0,0 l/m² 0 min 0 min 0 W/m² 16,1 km/h (3 Bft) 97,87 %
05.02.2026 20:58 4,6 °C 3,9 °C 0,6 °C 93 % 989,0 hPa 0,0 l/m² 0 min 0 min 0 W/m² 16,1 km/h (3 Bft) 97,83 %
05.02.2026 21:00 4,6 °C 3,9 °C 0,6 °C 93 % 989,0 hPa 0,0 l/m² 0 min 0 min 0 W/m² 12,9 km/h (3 Bft) 93,62 %
05.02.2026 21:02 4,6 °C 3,9 °C 0,6 °C 93 % 989,1 hPa 0,0 l/m² 0 min 0 min 0 W/m² 19,3 km/h (3 Bft) 95,74 %
05.02.2026 21:04 4,6 °C 3,9 °C 0,6 °C 93 % 989,0 hPa 0,0 l/m² 0 min 0 min 0 W/m² 25,7 km/h (4 Bft) 97,87 %
05.02.2026 21:06 4,6 °C 3,9 °C 0,6 °C 93 % 989,0 hPa 0,0 l/m² 0 min 0 min 0 W/m² 19,3 km/h (3 Bft) 95,74 %
05.02.2026 21:08 4,6 °C 3,9 °C 0,6 °C 93 % 989,0 hPa 0,0 l/m² 0 min 0 min 0 W/m² 12,9 km/h (3 Bft) 95,92 %
05.02.2026 21:10 4,6 °C 3,9 °C 0,6 °C 93 % 989,0 hPa 0,0 l/m² 0 min 0 min 0 W/m² 19,3 km/h (3 Bft) 93,48 %
05.02.2026 21:12 4,6 °C 3,9 °C 0,6 °C 93 % 989,0 hPa 0,0 l/m² 0 min 0 min 0 W/m² 16,1 km/h (3 Bft) 93,62 %
05.02.2026 21:14 4,6 °C 3,9 °C 0,6 °C 93 % 988,9 hPa 0,0 l/m² 0 min 0 min 0 W/m² 19,3 km/h (3 Bft) 93,62 %
05.02.2026 21:16 4,6 °C 3,9 °C 0,6 °C 93 % 989,0 hPa 0,0 l/m² 0 min 0 min 0 W/m² 19,3 km/h (3 Bft) 91,49 %
05.02.2026 21:18 4,6 °C 3,9 °C 0,6 °C 93 % 989,0 hPa 0,0 l/m² 0 min 0 min 0 W/m² 12,9 km/h (3 Bft) 93,62 %
05.02.2026 21:20 4,6 °C 3,9 °C 0,6 °C 93 % 989,0 hPa 0,0 l/m² 0 min 0 min 0 W/m² 12,9 km/h (3 Bft) 91,49 %
05.02.2026 21:22 4,6 °C 3,9 °C 0,6 °C 93 % 989,0 hPa 0,0 l/m² 0 min 0 min 0 W/m² 12,9 km/h (3 Bft) 93,48 %
05.02.2026 21:24 4,6 °C 3,9 °C 0,6 °C 93 % 989,0 hPa 0,0 l/m² 0 min 0 min 0 W/m² 19,3 km/h (3 Bft) 91,49 %
05.02.2026 21:26 4,6 °C 3,9 °C 0,6 °C 93 % 989,0 hPa 0,0 l/m² 0 min 0 min 0 W/m² 16,1 km/h (3 Bft) 93,62 %
05.02.2026 21:28 4,6 °C 3,9 °C 0,6 °C 93 % 989,0 hPa 0,0 l/m² 0 min 0 min 0 W/m² 6,4 km/h (2 Bft) 93,62 %
05.02.2026 21:30 4,6 °C 3,9 °C 0,6 °C 93 % 989,0 hPa 0,0 l/m² 0 min 0 min 0 W/m² 16,1 km/h (3 Bft) 93,62 %
05.02.2026 21:32 4,6 °C 3,9 °C 0,6 °C 93 % 989,0 hPa 0,0 l/m² 0 min 0 min 0 W/m² 19,3 km/h (3 Bft) 91,49 %
05.02.2026 21:34 4,6 °C 3,9 °C 0,6 °C 93 % 989,0 hPa 0,0 l/m² 0 min 0 min 0 W/m² 12,9 km/h (3 Bft) 89,13 %
05.02.2026 21:36 4,6 °C 3,9 °C 0,6 °C 93 % 988,9 hPa 0,0 l/m² 0 min 0 min 0 W/m² 12,9 km/h (3 Bft) 95,74 %
05.02.2026 21:38 4,6 °C 3,9 °C 0,6 °C 93 % 988,9 hPa 0,0 l/m² 0 min 0 min 0 W/m² 16,1 km/h (3 Bft) 95,74 %
05.02.2026 21:40 4,6 °C 3,9 °C 0,6 °C 93 % 988,9 hPa 0,0 l/m² 0 min 0 min 0 W/m² 16,1 km/h (3 Bft) 95,74 %
05.02.2026 21:42 4,6 °C 3,9 °C 0,6 °C 93 % 988,9 hPa 0,0 l/m² 0 min 0 min 0 W/m² 12,9 km/h (3 Bft) 95,74 %
05.02.2026 21:44 4,6 °C 3,9 °C 0,6 °C 93 % 988,9 hPa 0,0 l/m² 0 min 0 min 0 W/m² 16,1 km/h (3 Bft) 97,87 %
05.02.2026 21:46 4,6 °C 3,9 °C 0,6 °C 93 % 988,9 hPa 0,0 l/m² 0 min 0 min 0 W/m² 16,1 km/h (3 Bft) 100,00 %
05.02.2026 21:48 4,5 °C 3,9 °C 0,6 °C 93 % 989,0 hPa 0,0 l/m² 0 min 0 min 0 W/m² 16,1 km/h (3 Bft) 100,00 %
05.02.2026 21:50 4,5 °C 3,9 °C 0,6 °C 93 % 988,9 hPa 0,0 l/m² 0 min 0 min 0 W/m² 16,1 km/h (3 Bft) 97,87 %
05.02.2026 21:52 4,5 °C 3,9 °C 0,6 °C 93 % 988,9 hPa 0,0 l/m² 0 min 0 min 0 W/m² 16,1 km/h (3 Bft) 100,00 %
05.02.2026 21:54 4,5 °C 3,9 °C 0,6 °C 93 % 988,9 hPa 0,0 l/m² 0 min 0 min 0 W/m² 16,1 km/h (3 Bft) 100,00 %
05.02.2026 21:56 4,5 °C 3,9 °C 0,6 °C 93 % 988,9 hPa 0,0 l/m² 0 min 0 min 0 W/m² 16,1 km/h (3 Bft) 97,83 %
05.02.2026 21:58 4,5 °C 3,9 °C 0,6 °C 93 % 988,9 hPa 0,0 l/m² 0 min 0 min 0 W/m² 12,9 km/h (3 Bft) 97,87 %
05.02.2026 22:00 4,4 °C 3,9 °C 0,6 °C 93 % 988,9 hPa 0,0 l/m² 0 min 0 min 0 W/m² 16,1 km/h (3 Bft) 100,00 %
05.02.2026 22:02 4,5 °C 3,9 °C 0,6 °C 93 % 989,0 hPa 0,0 l/m² 0 min 0 min 0 W/m² 12,9 km/h (3 Bft) 97,87 %
05.02.2026 22:04 4,4 °C 3,9 °C 0,6 °C 93 % 989,0 hPa 0,0 l/m² 0 min 0 min 0 W/m² 16,1 km/h (3 Bft) 100,00 %
05.02.2026 22:06 4,4 °C 3,9 °C 0,6 °C 93 % 988,9 hPa 0,0 l/m² 0 min 0 min 0 W/m² 16,1 km/h (3 Bft) 100,00 %
05.02.2026 22:08 4,4 °C 3,9 °C 0,6 °C 93 % 988,9 hPa 0,0 l/m² 0 min 0 min 0 W/m² 16,1 km/h (3 Bft) 97,87 %
05.02.2026 22:10 4,4 °C 3,9 °C 0,6 °C 93 % 988,9 hPa 0,0 l/m² 0 min 0 min 0 W/m² 12,9 km/h (3 Bft) 100,00 %
05.02.2026 22:12 4,4 °C 3,9 °C 0,6 °C 93 % 988,9 hPa 0,0 l/m² 0 min 0 min 0 W/m² 12,9 km/h (3 Bft) 100,00 %
05.02.2026 22:14 4,4 °C 3,9 °C 0,0 °C 93 % 988,9 hPa 0,0 l/m² 0 min 0 min 0 W/m² 16,1 km/h (3 Bft) 100,00 %
05.02.2026 22:16 4,4 °C 3,9 °C 0,0 °C 93 % 988,9 hPa 0,0 l/m² 0 min 0 min 0 W/m² 16,1 km/h (3 Bft) 100,00 %
05.02.2026 22:18 4,4 °C 3,9 °C 0,0 °C 93 % 988,9 hPa 0,0 l/m² 0 min 0 min 0 W/m² 12,9 km/h (3 Bft) 100,00 %
05.02.2026 22:20 4,3 °C 3,9 °C 0,0 °C 93 % 988,9 hPa 0,0 l/m² 0 min 0 min 0 W/m² 19,3 km/h (3 Bft) 97,83 %
05.02.2026 22:22 4,3 °C 3,9 °C 0,0 °C 92 % 988,7 hPa 0,0 l/m² 0 min 0 min 0 W/m² 22,5 km/h (4 Bft) 100,00 %
05.02.2026 22:24 4,3 °C 3,9 °C 0,0 °C 92 % 988,9 hPa 0,0 l/m² 0 min 0 min 0 W/m² 12,9 km/h (3 Bft) 100,00 %
05.02.2026 22:26 4,3 °C 3,9 °C 0,0 °C 92 % 988,9 hPa 0,0 l/m² 0 min 0 min 0 W/m² 19,3 km/h (3 Bft) 97,87 %
05.02.2026 22:28 4,3 °C 3,9 °C 0,0 °C 92 % 988,8 hPa 0,0 l/m² 0 min 0 min 0 W/m² 16,1 km/h (3 Bft) 100,00 %
05.02.2026 22:30 4,3 °C 3,9 °C 0,0 °C 92 % 988,8 hPa 0,0 l/m² 0 min 0 min 0 W/m² 6,4 km/h (2 Bft) 100,00 %
05.02.2026 22:32 4,3 °C 3,9 °C 0,0 °C 92 % 988,8 hPa 0,0 l/m² 0 min 0 min 0 W/m² 19,3 km/h (3 Bft) 97,87 %
05.02.2026 22:34 4,3 °C 3,9 °C 0,0 °C 92 % 988,8 hPa 0,0 l/m² 0 min 0 min 0 W/m² 19,3 km/h (3 Bft) 100,00 %
05.02.2026 22:36 4,2 °C 3,9 °C 0,0 °C 92 % 988,8 hPa 0,0 l/m² 0 min 0 min 0 W/m² 16,1 km/h (3 Bft) 95,65 %
05.02.2026 22:38 4,2 °C 3,9 °C 0,0 °C 92 % 988,8 hPa 0,0 l/m² 0 min 0 min 0 W/m² 16,1 km/h (3 Bft) 97,87 %
05.02.2026 22:40 4,2 °C 3,9 °C 0,0 °C 92 % 988,8 hPa 0,0 l/m² 0 min 0 min 0 W/m² 16,1 km/h (3 Bft) 97,87 %
05.02.2026 22:42 4,2 °C 3,9 °C 0,0 °C 92 % 988,8 hPa 0,0 l/m² 0 min 0 min 0 W/m² 16,1 km/h (3 Bft) 100,00 %
05.02.2026 22:44 4,2 °C 3,9 °C 0,0 °C 92 % 988,8 hPa 0,0 l/m² 0 min 0 min 0 W/m² 16,1 km/h (3 Bft) 97,87 %
05.02.2026 22:46 4,2 °C 3,9 °C 0,0 °C 92 % 988,8 hPa 0,0 l/m² 0 min 0 min 0 W/m² 12,9 km/h (3 Bft) 97,83 %
05.02.2026 22:48 4,2 °C 3,9 °C 0,0 °C 92 % 988,8 hPa 0,0 l/m² 0 min 0 min 0 W/m² 12,9 km/h (3 Bft) 97,87 %
05.02.2026 22:50 4,2 °C 3,3 °C 0,0 °C 92 % 988,8 hPa 0,0 l/m² 0 min 0 min 0 W/m² 16,1 km/h (3 Bft) 97,87 %
05.02.2026 22:52 4,2 °C 3,3 °C 0,0 °C 92 % 988,9 hPa 0,0 l/m² 0 min 0 min 0 W/m² 16,1 km/h (3 Bft) 97,87 %
05.02.2026 22:54 4,2 °C 3,3 °C 0,0 °C 92 % 988,9 hPa 0,0 l/m² 0 min 0 min 0 W/m² 16,1 km/h (3 Bft) 100,00 %
05.02.2026 22:56 4,1 °C 3,3 °C 0,0 °C 92 % 988,9 hPa 0,0 l/m² 0 min 0 min 0 W/m² 19,3 km/h (3 Bft) 95,74 %
05.02.2026 22:58 4,1 °C 3,3 °C 0,0 °C 92 % 988,9 hPa 0,0 l/m² 0 min 0 min 0 W/m² 22,5 km/h (4 Bft) 100,00 %
05.02.2026 23:00 4,1 °C 3,3 °C 0,0 °C 92 % 988,8 hPa 0,0 l/m² 0 min 0 min 0 W/m² 19,3 km/h (3 Bft) 97,87 %
05.02.2026 23:02 4,1 °C 3,3 °C 0,0 °C 92 % 988,9 hPa 0,0 l/m² 0 min 0 min 0 W/m² 19,3 km/h (3 Bft) 93,62 %
05.02.2026 23:04 4,1 °C 3,3 °C 0,0 °C 92 % 988,9 hPa 0,0 l/m² 0 min 0 min 0 W/m² 19,3 km/h (3 Bft) 95,83 %
05.02.2026 23:06 4,1 °C 3,3 °C 0,0 °C 92 % 988,9 hPa 0,0 l/m² 0 min 0 min 0 W/m² 19,3 km/h (3 Bft) 97,83 %
05.02.2026 23:08 4,1 °C 3,3 °C 0,0 °C 92 % 988,8 hPa 0,0 l/m² 0 min 0 min 0 W/m² 19,3 km/h (3 Bft) 95,74 %
05.02.2026 23:10 4,1 °C 3,3 °C 0,0 °C 92 % 988,9 hPa 0,0 l/m² 0 min 0 min 0 W/m² 16,1 km/h (3 Bft) 97,87 %
05.02.2026 23:12 4,1 °C 3,3 °C 0,0 °C 92 % 988,9 hPa 0,0 l/m² 0 min 0 min 0 W/m² 19,3 km/h (3 Bft) 95,74 %
05.02.2026 23:14 4,0 °C 3,3 °C 0,0 °C 92 % 988,9 hPa 0,0 l/m² 0 min 0 min 0 W/m² 22,5 km/h (4 Bft) 97,87 %
05.02.2026 23:16 4,0 °C 3,3 °C 0,0 °C 92 % 988,9 hPa 0,0 l/m² 0 min 0 min 0 W/m² 12,9 km/h (3 Bft) 93,62 %
05.02.2026 23:18 4,0 °C 3,3 °C 0,0 °C 92 % 988,9 hPa 0,0 l/m² 0 min 0 min 0 W/m² 12,9 km/h (3 Bft) 93,48 %
05.02.2026 23:20 4,0 °C 3,3 °C 0,0 °C 92 % 988,9 hPa 0,0 l/m² 0 min 0 min 0 W/m² 6,4 km/h (2 Bft) 23,08 %
05.02.2026 23:22 4,0 °C 3,3 °C 0,0 °C 92 % 988,9 hPa 0,0 l/m² 0 min 0 min 0 W/m² 19,3 km/h (3 Bft) 96,77 %
05.02.2026 23:24 4,0 °C 3,3 °C 0,0 °C 92 % 988,9 hPa 0,0 l/m² 0 min 0 min 0 W/m² 22,5 km/h (4 Bft) 97,87 %
05.02.2026 23:26 3,9 °C 3,3 °C 0,0 °C 92 % 988,9 hPa 0,0 l/m² 0 min 0 min 0 W/m² 16,1 km/h (3 Bft) 97,87 %
05.02.2026 23:28 3,9 °C 3,3 °C 0,0 °C 92 % 988,8 hPa 0,0 l/m² 0 min 0 min 0 W/m² 16,1 km/h (3 Bft) 95,74 %
05.02.2026 23:30 3,9 °C 3,3 °C 0,0 °C 92 % 988,9 hPa 0,0 l/m² 0 min 0 min 0 W/m² 12,9 km/h (3 Bft) 95,65 %
05.02.2026 23:32 3,9 °C 3,3 °C 0,0 °C 92 % 988,9 hPa 0,0 l/m² 0 min 0 min 0 W/m² 16,1 km/h (3 Bft) 95,74 %
05.02.2026 23:34 3,9 °C 3,3 °C 0,0 °C 92 % 988,9 hPa 0,0 l/m² 0 min 0 min 0 W/m² 16,1 km/h (3 Bft) 97,87 %
05.02.2026 23:36 3,9 °C 3,3 °C 0,0 °C 92 % 989,0 hPa 0,0 l/m² 0 min 0 min 0 W/m² 16,1 km/h (3 Bft) 95,74 %
05.02.2026 23:38 3,9 °C 3,3 °C 0,0 °C 92 % 989,0 hPa 0,0 l/m² 0 min 0 min 0 W/m² 6,4 km/h (2 Bft) 95,74 %
05.02.2026 23:40 3,9 °C 3,3 °C -0,6 °C 92 % 989,0 hPa 0,0 l/m² 0 min 0 min 0 W/m² 16,1 km/h (3 Bft) 97,87 %
05.02.2026 23:42 3,9 °C 3,3 °C -0,6 °C 92 % 989,0 hPa 0,0 l/m² 0 min 0 min 0 W/m² 16,1 km/h (3 Bft) 97,83 %
05.02.2026 23:44 3,9 °C 3,3 °C -0,6 °C 92 % 989,0 hPa 0,0 l/m² 0 min 0 min 0 W/m² 12,9 km/h (3 Bft) 97,87 %
05.02.2026 23:46 3,9 °C 3,3 °C -0,6 °C 92 % 989,1 hPa 0,0 l/m² 0 min 0 min 0 W/m² 12,9 km/h (3 Bft) 97,87 %
05.02.2026 23:48 3,9 °C 3,3 °C -0,6 °C 92 % 989,1 hPa 0,0 l/m² 0 min 0 min 0 W/m² 16,1 km/h (3 Bft) 95,74 %
05.02.2026 23:50 3,9 °C 3,3 °C -0,6 °C 92 % 989,1 hPa 0,0 l/m² 0 min 0 min 0 W/m² 16,1 km/h (3 Bft) 93,62 %
05.02.2026 23:52 3,9 °C 3,3 °C -0,6 °C 92 % 989,1 hPa 0,0 l/m² 0 min 0 min 0 W/m² 19,3 km/h (3 Bft) 97,83 %
05.02.2026 23:54 3,8 °C 3,3 °C -0,6 °C 92 % 989,1 hPa 0,0 l/m² 0 min 0 min 0 W/m² 12,9 km/h (3 Bft) 95,74 %
05.02.2026 23:56 3,8 °C 3,3 °C 0,0 °C 92 % 989,1 hPa 0,0 l/m² 0 min 0 min 0 W/m² 19,3 km/h (3 Bft) 95,74 %
05.02.2026 23:58 3,8 °C 3,3 °C 0,0 °C 92 % 989,2 hPa 0,0 l/m² 0 min 0 min 0 W/m² 12,9 km/h (3 Bft) 95,74 %
_ Min-Zeit 01:40 01:00 00:04 15:12 22:22 - - - - 00:38 23:20
Minimum _ 1,0 °C 0,0 °C -2,8 °C 79 % 988,7 hPa - - - - 3,2 km/h (1 Bft) 23,08 %
_ Max-Zeit 15:08 14:56 13:54 04:00 00:20 00:00 09:38 19:00 11:18 09:30 00:04
Maximum _ 8,4 °C 12,8 °C 3,3 °C 96 % 994,8 hPa 0,0 l/m² 2 min 2 min 396 W/m² 35,4 km/h
O-NO (5 Bft)
100,00 %
Durchschnitt _ 4,3 °C 4,1 °C 0,1 °C 90 % 991,4 hPa #0,0 l/m² #2:58 h #4 min. 120 W/m² 14,0 km/h (3 Bft) 96,75 %
© 2026 W. Hausmann